<?xml version="1.0" encoding="UTF-8" standalone="no" ?>
<gpx xmlns="http://www.topografix.com/GPX/1/1" xmlns:xsi="http://www.w3.org/2001/XMLSchema-instance" xsi:schemaLocation="http://www.topografix.com/GPX/1/1 http://www.topografix.com/GPX/1/1/gpx.xsd" version="1.1" creator="VisuGPX - https://www.visugpx.com">
  <metadata>
    <name>CAP depuis Sardan</name>
    <desc><![CDATA[1ère partie sur sentiers ; la suite sur route]]></desc>
  </metadata>
  <trk>
    <name><![CDATA[20180603110628-Dplbp]]></name>
    <trkseg>
      <trkpt lat="43.87132" lon="4.04014">
        <ele>61</ele>
        <time>2018-05-11T15:45:48Z</time>
      </trkpt>
      <trkpt lat="43.8713" lon="4.04014">
        <ele>61</ele>
        <time>2018-05-11T15:45:49Z</time>
      </trkpt>
      <trkpt lat="43.87128" lon="4.04014">
        <ele>61</ele>
        <time>2018-05-11T15:45:50Z</time>
      </trkpt>
      <trkpt lat="43.87122" lon="4.0401">
        <ele>61</ele>
        <time>2018-05-11T15:45:53Z</time>
      </trkpt>
      <trkpt lat="43.87119" lon="4.04008">
        <ele>61</ele>
        <time>2018-05-11T15:45:54Z</time>
      </trkpt>
      <trkpt lat="43.87116" lon="4.04002">
        <ele>61</ele>
        <time>2018-05-11T15:45:56Z</time>
      </trkpt>
      <trkpt lat="43.87113" lon="4.03997">
        <ele>65</ele>
        <time>2018-05-11T15:45:58Z</time>
      </trkpt>
      <trkpt lat="43.8711" lon="4.03993">
        <ele>65</ele>
        <time>2018-05-11T15:46:00Z</time>
      </trkpt>
      <trkpt lat="43.87107" lon="4.03989">
        <ele>65</ele>
        <time>2018-05-11T15:46:02Z</time>
      </trkpt>
      <trkpt lat="43.87106" lon="4.03987">
        <ele>65</ele>
        <time>2018-05-11T15:46:03Z</time>
      </trkpt>
      <trkpt lat="43.87102" lon="4.03982">
        <ele>65</ele>
        <time>2018-05-11T15:46:05Z</time>
      </trkpt>
      <trkpt lat="43.87099" lon="4.03977">
        <ele>66</ele>
        <time>2018-05-11T15:46:07Z</time>
      </trkpt>
      <trkpt lat="43.87096" lon="4.03973">
        <ele>66</ele>
        <time>2018-05-11T15:46:09Z</time>
      </trkpt>
      <trkpt lat="43.87095" lon="4.03971">
        <ele>66</ele>
        <time>2018-05-11T15:46:10Z</time>
      </trkpt>
      <trkpt lat="43.87092" lon="4.03967">
        <ele>66</ele>
        <time>2018-05-11T15:46:12Z</time>
      </trkpt>
      <trkpt lat="43.8709" lon="4.03961">
        <ele>67</ele>
        <time>2018-05-11T15:46:14Z</time>
      </trkpt>
      <trkpt lat="43.87091" lon="4.03958">
        <ele>67</ele>
        <time>2018-05-11T15:46:15Z</time>
      </trkpt>
      <trkpt lat="43.87091" lon="4.03956">
        <ele>67</ele>
        <time>2018-05-11T15:46:16Z</time>
      </trkpt>
      <trkpt lat="43.87093" lon="4.03953">
        <ele>67</ele>
        <time>2018-05-11T15:46:17Z</time>
      </trkpt>
      <trkpt lat="43.87094" lon="4.0395">
        <ele>68</ele>
        <time>2018-05-11T15:46:18Z</time>
      </trkpt>
      <trkpt lat="43.87096" lon="4.03948">
        <ele>68</ele>
        <time>2018-05-11T15:46:19Z</time>
      </trkpt>
      <trkpt lat="43.87098" lon="4.03946">
        <ele>68</ele>
        <time>2018-05-11T15:46:20Z</time>
      </trkpt>
      <trkpt lat="43.871" lon="4.03944">
        <ele>68</ele>
        <time>2018-05-11T15:46:21Z</time>
      </trkpt>
      <trkpt lat="43.87101" lon="4.03942">
        <ele>68</ele>
        <time>2018-05-11T15:46:22Z</time>
      </trkpt>
      <trkpt lat="43.87115" lon="4.03919">
        <ele>69</ele>
        <time>2018-05-11T15:46:31Z</time>
      </trkpt>
      <trkpt lat="43.87122" lon="4.03902">
        <ele>74</ele>
        <time>2018-05-11T15:46:37Z</time>
      </trkpt>
      <trkpt lat="43.87129" lon="4.03895">
        <ele>74</ele>
        <time>2018-05-11T15:46:41Z</time>
      </trkpt>
      <trkpt lat="43.8713" lon="4.03893">
        <ele>74</ele>
        <time>2018-05-11T15:46:42Z</time>
      </trkpt>
      <trkpt lat="43.87135" lon="4.03884">
        <ele>75</ele>
        <time>2018-05-11T15:46:46Z</time>
      </trkpt>
      <trkpt lat="43.87137" lon="4.03882">
        <ele>75</ele>
        <time>2018-05-11T15:46:47Z</time>
      </trkpt>
      <trkpt lat="43.87139" lon="4.03881">
        <ele>75</ele>
        <time>2018-05-11T15:46:48Z</time>
      </trkpt>
      <trkpt lat="43.87141" lon="4.03881">
        <ele>75</ele>
        <time>2018-05-11T15:46:49Z</time>
      </trkpt>
      <trkpt lat="43.87143" lon="4.03882">
        <ele>75</ele>
        <time>2018-05-11T15:46:50Z</time>
      </trkpt>
      <trkpt lat="43.87145" lon="4.03883">
        <ele>75</ele>
        <time>2018-05-11T15:46:51Z</time>
      </trkpt>
      <trkpt lat="43.87147" lon="4.03885">
        <ele>75</ele>
        <time>2018-05-11T15:46:52Z</time>
      </trkpt>
      <trkpt lat="43.87149" lon="4.03886">
        <ele>75</ele>
        <time>2018-05-11T15:46:53Z</time>
      </trkpt>
      <trkpt lat="43.87152" lon="4.03888">
        <ele>74</ele>
        <time>2018-05-11T15:46:54Z</time>
      </trkpt>
      <trkpt lat="43.87154" lon="4.03889">
        <ele>74</ele>
        <time>2018-05-11T15:46:55Z</time>
      </trkpt>
      <trkpt lat="43.87156" lon="4.0389">
        <ele>74</ele>
        <time>2018-05-11T15:46:56Z</time>
      </trkpt>
      <trkpt lat="43.87159" lon="4.03891">
        <ele>74</ele>
        <time>2018-05-11T15:46:57Z</time>
      </trkpt>
      <trkpt lat="43.87177" lon="4.03903">
        <ele>75</ele>
        <time>2018-05-11T15:47:05Z</time>
      </trkpt>
      <trkpt lat="43.87191" lon="4.03909">
        <ele>75</ele>
        <time>2018-05-11T15:47:12Z</time>
      </trkpt>
      <trkpt lat="43.87193" lon="4.03908">
        <ele>76</ele>
        <time>2018-05-11T15:47:13Z</time>
      </trkpt>
      <trkpt lat="43.8721" lon="4.03893">
        <ele>77</ele>
        <time>2018-05-11T15:47:22Z</time>
      </trkpt>
      <trkpt lat="43.87231" lon="4.03887">
        <ele>77</ele>
        <time>2018-05-11T15:47:30Z</time>
      </trkpt>
      <trkpt lat="43.87249" lon="4.03877">
        <ele>78</ele>
        <time>2018-05-11T15:47:39Z</time>
      </trkpt>
      <trkpt lat="43.87266" lon="4.03861">
        <ele>79</ele>
        <time>2018-05-11T15:47:48Z</time>
      </trkpt>
      <trkpt lat="43.8728" lon="4.03842">
        <ele>80</ele>
        <time>2018-05-11T15:47:58Z</time>
      </trkpt>
      <trkpt lat="43.87298" lon="4.03823">
        <ele>83</ele>
        <time>2018-05-11T15:48:08Z</time>
      </trkpt>
      <trkpt lat="43.87299" lon="4.0382">
        <ele>83</ele>
        <time>2018-05-11T15:48:09Z</time>
      </trkpt>
      <trkpt lat="43.87299" lon="4.03817">
        <ele>83</ele>
        <time>2018-05-11T15:48:10Z</time>
      </trkpt>
      <trkpt lat="43.87298" lon="4.03816">
        <ele>83</ele>
        <time>2018-05-11T15:48:11Z</time>
      </trkpt>
      <trkpt lat="43.87296" lon="4.03815">
        <ele>83</ele>
        <time>2018-05-11T15:48:12Z</time>
      </trkpt>
      <trkpt lat="43.87294" lon="4.03814">
        <ele>83</ele>
        <time>2018-05-11T15:48:13Z</time>
      </trkpt>
      <trkpt lat="43.87292" lon="4.03813">
        <ele>83</ele>
        <time>2018-05-11T15:48:14Z</time>
      </trkpt>
      <trkpt lat="43.8729" lon="4.03812">
        <ele>83</ele>
        <time>2018-05-11T15:48:15Z</time>
      </trkpt>
      <trkpt lat="43.87272" lon="4.03799">
        <ele>84</ele>
        <time>2018-05-11T15:48:25Z</time>
      </trkpt>
      <trkpt lat="43.87253" lon="4.03785">
        <ele>85</ele>
        <time>2018-05-11T15:48:36Z</time>
      </trkpt>
      <trkpt lat="43.87233" lon="4.03771">
        <ele>86</ele>
        <time>2018-05-11T15:48:46Z</time>
      </trkpt>
      <trkpt lat="43.87211" lon="4.03759">
        <ele>86</ele>
        <time>2018-05-11T15:48:57Z</time>
      </trkpt>
      <trkpt lat="43.87194" lon="4.03739">
        <ele>90</ele>
        <time>2018-05-11T15:49:06Z</time>
      </trkpt>
      <trkpt lat="43.87177" lon="4.03719">
        <ele>91</ele>
        <time>2018-05-11T15:49:15Z</time>
      </trkpt>
      <trkpt lat="43.8716" lon="4.03703">
        <ele>93</ele>
        <time>2018-05-11T15:49:24Z</time>
      </trkpt>
      <trkpt lat="43.8714" lon="4.03695">
        <ele>93</ele>
        <time>2018-05-11T15:49:33Z</time>
      </trkpt>
      <trkpt lat="43.87123" lon="4.03678">
        <ele>94</ele>
        <time>2018-05-11T15:49:41Z</time>
      </trkpt>
      <trkpt lat="43.87116" lon="4.03673">
        <ele>94</ele>
        <time>2018-05-11T15:49:44Z</time>
      </trkpt>
      <trkpt lat="43.87114" lon="4.03672">
        <ele>94</ele>
        <time>2018-05-11T15:49:45Z</time>
      </trkpt>
      <trkpt lat="43.87112" lon="4.03671">
        <ele>94</ele>
        <time>2018-05-11T15:49:46Z</time>
      </trkpt>
      <trkpt lat="43.8711" lon="4.0367">
        <ele>95</ele>
        <time>2018-05-11T15:49:47Z</time>
      </trkpt>
      <trkpt lat="43.87108" lon="4.0367">
        <ele>95</ele>
        <time>2018-05-11T15:49:48Z</time>
      </trkpt>
      <trkpt lat="43.87106" lon="4.03668">
        <ele>95</ele>
        <time>2018-05-11T15:49:49Z</time>
      </trkpt>
      <trkpt lat="43.87105" lon="4.03667">
        <ele>95</ele>
        <time>2018-05-11T15:49:50Z</time>
      </trkpt>
      <trkpt lat="43.87103" lon="4.03666">
        <ele>102</ele>
        <time>2018-05-11T15:49:51Z</time>
      </trkpt>
      <trkpt lat="43.87102" lon="4.03666">
        <ele>102</ele>
        <time>2018-05-11T15:49:52Z</time>
      </trkpt>
      <trkpt lat="43.871" lon="4.03665">
        <ele>102</ele>
        <time>2018-05-11T15:49:53Z</time>
      </trkpt>
      <trkpt lat="43.87099" lon="4.03664">
        <ele>102</ele>
        <time>2018-05-11T15:49:54Z</time>
      </trkpt>
      <trkpt lat="43.87098" lon="4.03663">
        <ele>101</ele>
        <time>2018-05-11T15:49:55Z</time>
      </trkpt>
      <trkpt lat="43.87076" lon="4.03655">
        <ele>103</ele>
        <time>2018-05-11T15:50:07Z</time>
      </trkpt>
      <trkpt lat="43.87054" lon="4.03649">
        <ele>107</ele>
        <time>2018-05-11T15:50:17Z</time>
      </trkpt>
      <trkpt lat="43.8703" lon="4.03646">
        <ele>109</ele>
        <time>2018-05-11T15:50:28Z</time>
      </trkpt>
      <trkpt lat="43.87009" lon="4.0364">
        <ele>110</ele>
        <time>2018-05-11T15:50:38Z</time>
      </trkpt>
      <trkpt lat="43.86991" lon="4.03629">
        <ele>116</ele>
        <time>2018-05-11T15:50:48Z</time>
      </trkpt>
      <trkpt lat="43.86975" lon="4.03622">
        <ele>117</ele>
        <time>2018-05-11T15:50:56Z</time>
      </trkpt>
      <trkpt lat="43.86972" lon="4.03621">
        <ele>117</ele>
        <time>2018-05-11T15:50:57Z</time>
      </trkpt>
      <trkpt lat="43.86971" lon="4.03621">
        <ele>118</ele>
        <time>2018-05-11T15:50:58Z</time>
      </trkpt>
      <trkpt lat="43.8695" lon="4.03617">
        <ele>119</ele>
        <time>2018-05-11T15:51:09Z</time>
      </trkpt>
      <trkpt lat="43.86928" lon="4.03613">
        <ele>121</ele>
        <time>2018-05-11T15:51:20Z</time>
      </trkpt>
      <trkpt lat="43.86906" lon="4.03604">
        <ele>125</ele>
        <time>2018-05-11T15:51:31Z</time>
      </trkpt>
      <trkpt lat="43.86883" lon="4.03599">
        <ele>124</ele>
        <time>2018-05-11T15:51:42Z</time>
      </trkpt>
      <trkpt lat="43.86859" lon="4.03595">
        <ele>125</ele>
        <time>2018-05-11T15:51:52Z</time>
      </trkpt>
      <trkpt lat="43.86839" lon="4.03584">
        <ele>129</ele>
        <time>2018-05-11T15:52:02Z</time>
      </trkpt>
      <trkpt lat="43.86819" lon="4.03576">
        <ele>136</ele>
        <time>2018-05-11T15:52:13Z</time>
      </trkpt>
      <trkpt lat="43.86798" lon="4.03567">
        <ele>139</ele>
        <time>2018-05-11T15:52:25Z</time>
      </trkpt>
      <trkpt lat="43.86783" lon="4.03559">
        <ele>140</ele>
        <time>2018-05-11T15:52:34Z</time>
      </trkpt>
      <trkpt lat="43.86773" lon="4.03554">
        <ele>141</ele>
        <time>2018-05-11T15:52:40Z</time>
      </trkpt>
      <trkpt lat="43.86771" lon="4.03553">
        <ele>141</ele>
        <time>2018-05-11T15:52:41Z</time>
      </trkpt>
      <trkpt lat="43.8677" lon="4.03553">
        <ele>141</ele>
        <time>2018-05-11T15:52:42Z</time>
      </trkpt>
      <trkpt lat="43.86768" lon="4.03553">
        <ele>141</ele>
        <time>2018-05-11T15:52:43Z</time>
      </trkpt>
      <trkpt lat="43.86766" lon="4.03553">
        <ele>141</ele>
        <time>2018-05-11T15:52:44Z</time>
      </trkpt>
      <trkpt lat="43.86765" lon="4.03552">
        <ele>141</ele>
        <time>2018-05-11T15:52:45Z</time>
      </trkpt>
      <trkpt lat="43.86749" lon="4.03544">
        <ele>145</ele>
        <time>2018-05-11T15:52:55Z</time>
      </trkpt>
      <trkpt lat="43.86748" lon="4.03543">
        <ele>145</ele>
        <time>2018-05-11T15:53:01Z</time>
      </trkpt>
      <trkpt lat="43.86747" lon="4.03543">
        <ele>145</ele>
        <time>2018-05-11T15:53:07Z</time>
      </trkpt>
      <trkpt lat="43.86746" lon="4.03543">
        <ele>145</ele>
        <time>2018-05-11T15:53:09Z</time>
      </trkpt>
      <trkpt lat="43.86746" lon="4.03543">
        <ele>145</ele>
        <time>2018-05-11T15:53:12Z</time>
      </trkpt>
      <trkpt lat="43.86746" lon="4.03542">
        <ele>145</ele>
        <time>2018-05-11T15:53:16Z</time>
      </trkpt>
      <trkpt lat="43.86746" lon="4.03543">
        <ele>145</ele>
        <time>2018-05-11T15:53:18Z</time>
      </trkpt>
      <trkpt lat="43.86746" lon="4.03545">
        <ele>145</ele>
        <time>2018-05-11T15:53:24Z</time>
      </trkpt>
      <trkpt lat="43.86745" lon="4.03547">
        <ele>145</ele>
        <time>2018-05-11T15:53:27Z</time>
      </trkpt>
      <trkpt lat="43.86746" lon="4.03548">
        <ele>145</ele>
        <time>2018-05-11T15:53:29Z</time>
      </trkpt>
      <trkpt lat="43.86746" lon="4.03547">
        <ele>145</ele>
        <time>2018-05-11T15:53:32Z</time>
      </trkpt>
      <trkpt lat="43.86746" lon="4.03547">
        <ele>145</ele>
        <time>2018-05-11T15:53:36Z</time>
      </trkpt>
      <trkpt lat="43.86744" lon="4.03547">
        <ele>145</ele>
        <time>2018-05-11T15:53:38Z</time>
      </trkpt>
      <trkpt lat="43.86742" lon="4.03547">
        <ele>145</ele>
        <time>2018-05-11T15:53:39Z</time>
      </trkpt>
      <trkpt lat="43.86741" lon="4.03546">
        <ele>145</ele>
        <time>2018-05-11T15:53:40Z</time>
      </trkpt>
      <trkpt lat="43.8674" lon="4.03546">
        <ele>145</ele>
        <time>2018-05-11T15:53:41Z</time>
      </trkpt>
      <trkpt lat="43.86736" lon="4.03544">
        <ele>145</ele>
        <time>2018-05-11T15:53:44Z</time>
      </trkpt>
      <trkpt lat="43.86732" lon="4.03544">
        <ele>145</ele>
        <time>2018-05-11T15:53:46Z</time>
      </trkpt>
      <trkpt lat="43.86726" lon="4.03542">
        <ele>146</ele>
        <time>2018-05-11T15:53:49Z</time>
      </trkpt>
      <trkpt lat="43.8672" lon="4.03538">
        <ele>146</ele>
        <time>2018-05-11T15:53:52Z</time>
      </trkpt>
      <trkpt lat="43.86717" lon="4.03534">
        <ele>147</ele>
        <time>2018-05-11T15:53:54Z</time>
      </trkpt>
      <trkpt lat="43.86705" lon="4.03526">
        <ele>147</ele>
        <time>2018-05-11T15:54:00Z</time>
      </trkpt>
      <trkpt lat="43.867" lon="4.03524">
        <ele>148</ele>
        <time>2018-05-11T15:54:03Z</time>
      </trkpt>
      <trkpt lat="43.86698" lon="4.03525">
        <ele>148</ele>
        <time>2018-05-11T15:54:04Z</time>
      </trkpt>
      <trkpt lat="43.86696" lon="4.03526">
        <ele>148</ele>
        <time>2018-05-11T15:54:05Z</time>
      </trkpt>
      <trkpt lat="43.86682" lon="4.03531">
        <ele>148</ele>
        <time>2018-05-11T15:54:10Z</time>
      </trkpt>
      <trkpt lat="43.86672" lon="4.03532">
        <ele>148</ele>
        <time>2018-05-11T15:54:14Z</time>
      </trkpt>
      <trkpt lat="43.86668" lon="4.03534">
        <ele>148</ele>
        <time>2018-05-11T15:54:16Z</time>
      </trkpt>
      <trkpt lat="43.86661" lon="4.03534">
        <ele>151</ele>
        <time>2018-05-11T15:54:19Z</time>
      </trkpt>
      <trkpt lat="43.86659" lon="4.03533">
        <ele>151</ele>
        <time>2018-05-11T15:54:20Z</time>
      </trkpt>
      <trkpt lat="43.86657" lon="4.03534">
        <ele>151</ele>
        <time>2018-05-11T15:54:21Z</time>
      </trkpt>
      <trkpt lat="43.86654" lon="4.03534">
        <ele>151</ele>
        <time>2018-05-11T15:54:22Z</time>
      </trkpt>
      <trkpt lat="43.86652" lon="4.03533">
        <ele>151</ele>
        <time>2018-05-11T15:54:23Z</time>
      </trkpt>
      <trkpt lat="43.8665" lon="4.03533">
        <ele>151</ele>
        <time>2018-05-11T15:54:24Z</time>
      </trkpt>
      <trkpt lat="43.86628" lon="4.03524">
        <ele>152</ele>
        <time>2018-05-11T15:54:34Z</time>
      </trkpt>
      <trkpt lat="43.86604" lon="4.03531">
        <ele>152</ele>
        <time>2018-05-11T15:54:44Z</time>
      </trkpt>
      <trkpt lat="43.86578" lon="4.03537">
        <ele>153</ele>
        <time>2018-05-11T15:54:53Z</time>
      </trkpt>
      <trkpt lat="43.86553" lon="4.03537">
        <ele>153</ele>
        <time>2018-05-11T15:55:02Z</time>
      </trkpt>
      <trkpt lat="43.86527" lon="4.03544">
        <ele>154</ele>
        <time>2018-05-11T15:55:11Z</time>
      </trkpt>
      <trkpt lat="43.86506" lon="4.03549">
        <ele>154</ele>
        <time>2018-05-11T15:55:20Z</time>
      </trkpt>
      <trkpt lat="43.86483" lon="4.03547">
        <ele>154</ele>
        <time>2018-05-11T15:55:30Z</time>
      </trkpt>
      <trkpt lat="43.86458" lon="4.03534">
        <ele>154</ele>
        <time>2018-05-11T15:55:41Z</time>
      </trkpt>
      <trkpt lat="43.86436" lon="4.03521">
        <ele>155</ele>
        <time>2018-05-11T15:55:50Z</time>
      </trkpt>
      <trkpt lat="43.86418" lon="4.03504">
        <ele>156</ele>
        <time>2018-05-11T15:55:57Z</time>
      </trkpt>
      <trkpt lat="43.86406" lon="4.03487">
        <ele>151</ele>
        <time>2018-05-11T15:56:02Z</time>
      </trkpt>
      <trkpt lat="43.8639" lon="4.03468">
        <ele>147</ele>
        <time>2018-05-11T15:56:07Z</time>
      </trkpt>
      <trkpt lat="43.86368" lon="4.0345">
        <ele>145</ele>
        <time>2018-05-11T15:56:13Z</time>
      </trkpt>
      <trkpt lat="43.86347" lon="4.03433">
        <ele>144</ele>
        <time>2018-05-11T15:56:19Z</time>
      </trkpt>
      <trkpt lat="43.86332" lon="4.03411">
        <ele>140</ele>
        <time>2018-05-11T15:56:25Z</time>
      </trkpt>
      <trkpt lat="43.86318" lon="4.03385">
        <ele>135</ele>
        <time>2018-05-11T15:56:32Z</time>
      </trkpt>
      <trkpt lat="43.8631" lon="4.03355">
        <ele>134</ele>
        <time>2018-05-11T15:56:39Z</time>
      </trkpt>
      <trkpt lat="43.86304" lon="4.03324">
        <ele>132</ele>
        <time>2018-05-11T15:56:46Z</time>
      </trkpt>
      <trkpt lat="43.863" lon="4.03292">
        <ele>131</ele>
        <time>2018-05-11T15:56:53Z</time>
      </trkpt>
      <trkpt lat="43.86295" lon="4.03266">
        <ele>130</ele>
        <time>2018-05-11T15:56:58Z</time>
      </trkpt>
      <trkpt lat="43.86286" lon="4.03235">
        <ele>129</ele>
        <time>2018-05-11T15:57:04Z</time>
      </trkpt>
      <trkpt lat="43.86281" lon="4.03209">
        <ele>130</ele>
        <time>2018-05-11T15:57:11Z</time>
      </trkpt>
      <trkpt lat="43.86282" lon="4.03208">
        <ele>130</ele>
        <time>2018-05-11T15:57:17Z</time>
      </trkpt>
      <trkpt lat="43.86284" lon="4.03209">
        <ele>130</ele>
        <time>2018-05-11T15:57:19Z</time>
      </trkpt>
      <trkpt lat="43.86285" lon="4.03211">
        <ele>130</ele>
        <time>2018-05-11T15:57:23Z</time>
      </trkpt>
      <trkpt lat="43.86287" lon="4.03209">
        <ele>130</ele>
        <time>2018-05-11T15:57:27Z</time>
      </trkpt>
      <trkpt lat="43.86288" lon="4.03208">
        <ele>130</ele>
        <time>2018-05-11T15:57:30Z</time>
      </trkpt>
      <trkpt lat="43.86287" lon="4.03207">
        <ele>130</ele>
        <time>2018-05-11T15:57:34Z</time>
      </trkpt>
      <trkpt lat="43.86286" lon="4.03205">
        <ele>130</ele>
        <time>2018-05-11T15:57:35Z</time>
      </trkpt>
      <trkpt lat="43.86285" lon="4.03204">
        <ele>130</ele>
        <time>2018-05-11T15:57:36Z</time>
      </trkpt>
      <trkpt lat="43.86277" lon="4.03181">
        <ele>131</ele>
        <time>2018-05-11T15:57:45Z</time>
      </trkpt>
      <trkpt lat="43.86276" lon="4.03179">
        <ele>131</ele>
        <time>2018-05-11T15:57:46Z</time>
      </trkpt>
      <trkpt lat="43.86275" lon="4.03176">
        <ele>131</ele>
        <time>2018-05-11T15:57:47Z</time>
      </trkpt>
      <trkpt lat="43.86269" lon="4.03166">
        <ele>133</ele>
        <time>2018-05-11T15:57:52Z</time>
      </trkpt>
      <trkpt lat="43.86265" lon="4.03158">
        <ele>133</ele>
        <time>2018-05-11T15:57:56Z</time>
      </trkpt>
      <trkpt lat="43.86264" lon="4.03157">
        <ele>133</ele>
        <time>2018-05-11T15:57:57Z</time>
      </trkpt>
      <trkpt lat="43.86263" lon="4.03155">
        <ele>134</ele>
        <time>2018-05-11T15:57:58Z</time>
      </trkpt>
      <trkpt lat="43.86253" lon="4.03144">
        <ele>134</ele>
        <time>2018-05-11T15:58:04Z</time>
      </trkpt>
      <trkpt lat="43.86243" lon="4.0313">
        <ele>142</ele>
        <time>2018-05-11T15:58:11Z</time>
      </trkpt>
      <trkpt lat="43.86236" lon="4.03118">
        <ele>143</ele>
        <time>2018-05-11T15:58:18Z</time>
      </trkpt>
      <trkpt lat="43.86235" lon="4.03116">
        <ele>143</ele>
        <time>2018-05-11T15:58:19Z</time>
      </trkpt>
      <trkpt lat="43.86234" lon="4.03114">
        <ele>143</ele>
        <time>2018-05-11T15:58:20Z</time>
      </trkpt>
      <trkpt lat="43.86233" lon="4.03113">
        <ele>143</ele>
        <time>2018-05-11T15:58:21Z</time>
      </trkpt>
      <trkpt lat="43.86231" lon="4.03112">
        <ele>143</ele>
        <time>2018-05-11T15:58:22Z</time>
      </trkpt>
      <trkpt lat="43.8623" lon="4.0311">
        <ele>143</ele>
        <time>2018-05-11T15:58:23Z</time>
      </trkpt>
      <trkpt lat="43.86228" lon="4.03108">
        <ele>144</ele>
        <time>2018-05-11T15:58:24Z</time>
      </trkpt>
      <trkpt lat="43.86226" lon="4.03106">
        <ele>144</ele>
        <time>2018-05-11T15:58:25Z</time>
      </trkpt>
      <trkpt lat="43.86224" lon="4.03104">
        <ele>144</ele>
        <time>2018-05-11T15:58:26Z</time>
      </trkpt>
      <trkpt lat="43.86218" lon="4.03096">
        <ele>145</ele>
        <time>2018-05-11T15:58:31Z</time>
      </trkpt>
      <trkpt lat="43.86214" lon="4.0309">
        <ele>146</ele>
        <time>2018-05-11T15:58:35Z</time>
      </trkpt>
      <trkpt lat="43.86208" lon="4.0308">
        <ele>152</ele>
        <time>2018-05-11T15:58:43Z</time>
      </trkpt>
      <trkpt lat="43.862" lon="4.0307">
        <ele>153</ele>
        <time>2018-05-11T15:58:51Z</time>
      </trkpt>
      <trkpt lat="43.86189" lon="4.0306">
        <ele>155</ele>
        <time>2018-05-11T15:59:00Z</time>
      </trkpt>
      <trkpt lat="43.86181" lon="4.03048">
        <ele>156</ele>
        <time>2018-05-11T15:59:10Z</time>
      </trkpt>
      <trkpt lat="43.8618" lon="4.03047">
        <ele>156</ele>
        <time>2018-05-11T15:59:12Z</time>
      </trkpt>
      <trkpt lat="43.86178" lon="4.03045">
        <ele>156</ele>
        <time>2018-05-11T15:59:13Z</time>
      </trkpt>
      <trkpt lat="43.86169" lon="4.0303">
        <ele>158</ele>
        <time>2018-05-11T15:59:22Z</time>
      </trkpt>
      <trkpt lat="43.86157" lon="4.03017">
        <ele>167</ele>
        <time>2018-05-11T15:59:31Z</time>
      </trkpt>
      <trkpt lat="43.86148" lon="4.03003">
        <ele>168</ele>
        <time>2018-05-11T15:59:40Z</time>
      </trkpt>
      <trkpt lat="43.86147" lon="4.03002">
        <ele>168</ele>
        <time>2018-05-11T15:59:41Z</time>
      </trkpt>
      <trkpt lat="43.86146" lon="4.03001">
        <ele>168</ele>
        <time>2018-05-11T15:59:42Z</time>
      </trkpt>
      <trkpt lat="43.86133" lon="4.02983">
        <ele>173</ele>
        <time>2018-05-11T15:59:54Z</time>
      </trkpt>
      <trkpt lat="43.86112" lon="4.02972">
        <ele>175</ele>
        <time>2018-05-11T16:00:05Z</time>
      </trkpt>
      <trkpt lat="43.8611" lon="4.02969">
        <ele>175</ele>
        <time>2018-05-11T16:00:07Z</time>
      </trkpt>
      <trkpt lat="43.86109" lon="4.02968">
        <ele>175</ele>
        <time>2018-05-11T16:00:08Z</time>
      </trkpt>
      <trkpt lat="43.86108" lon="4.02967">
        <ele>175</ele>
        <time>2018-05-11T16:00:09Z</time>
      </trkpt>
      <trkpt lat="43.86106" lon="4.02966">
        <ele>175</ele>
        <time>2018-05-11T16:00:10Z</time>
      </trkpt>
      <trkpt lat="43.86105" lon="4.02965">
        <ele>175</ele>
        <time>2018-05-11T16:00:11Z</time>
      </trkpt>
      <trkpt lat="43.86104" lon="4.02964">
        <ele>175</ele>
        <time>2018-05-11T16:00:12Z</time>
      </trkpt>
      <trkpt lat="43.86103" lon="4.02963">
        <ele>175</ele>
        <time>2018-05-11T16:00:13Z</time>
      </trkpt>
      <trkpt lat="43.86101" lon="4.02962">
        <ele>175</ele>
        <time>2018-05-11T16:00:14Z</time>
      </trkpt>
      <trkpt lat="43.861" lon="4.02961">
        <ele>176</ele>
        <time>2018-05-11T16:00:15Z</time>
      </trkpt>
      <trkpt lat="43.86099" lon="4.0296">
        <ele>176</ele>
        <time>2018-05-11T16:00:16Z</time>
      </trkpt>
      <trkpt lat="43.86098" lon="4.0296">
        <ele>176</ele>
        <time>2018-05-11T16:00:17Z</time>
      </trkpt>
      <trkpt lat="43.86096" lon="4.02959">
        <ele>176</ele>
        <time>2018-05-11T16:00:18Z</time>
      </trkpt>
      <trkpt lat="43.86082" lon="4.02957">
        <ele>181</ele>
        <time>2018-05-11T16:00:28Z</time>
      </trkpt>
      <trkpt lat="43.8608" lon="4.02957">
        <ele>181</ele>
        <time>2018-05-11T16:00:29Z</time>
      </trkpt>
      <trkpt lat="43.86079" lon="4.02957">
        <ele>181</ele>
        <time>2018-05-11T16:00:30Z</time>
      </trkpt>
      <trkpt lat="43.86078" lon="4.02957">
        <ele>181</ele>
        <time>2018-05-11T16:00:31Z</time>
      </trkpt>
      <trkpt lat="43.86076" lon="4.02957">
        <ele>181</ele>
        <time>2018-05-11T16:00:32Z</time>
      </trkpt>
      <trkpt lat="43.86076" lon="4.02952">
        <ele>181</ele>
        <time>2018-05-11T16:00:39Z</time>
      </trkpt>
      <trkpt lat="43.86075" lon="4.02955">
        <ele>181</ele>
        <time>2018-05-11T16:00:44Z</time>
      </trkpt>
      <trkpt lat="43.86075" lon="4.02956">
        <ele>181</ele>
        <time>2018-05-11T16:00:48Z</time>
      </trkpt>
      <trkpt lat="43.86074" lon="4.02958">
        <ele>181</ele>
        <time>2018-05-11T16:00:52Z</time>
      </trkpt>
      <trkpt lat="43.86074" lon="4.02956">
        <ele>181</ele>
        <time>2018-05-11T16:00:55Z</time>
      </trkpt>
      <trkpt lat="43.86075" lon="4.02955">
        <ele>181</ele>
        <time>2018-05-11T16:00:59Z</time>
      </trkpt>
      <trkpt lat="43.86074" lon="4.02955">
        <ele>181</ele>
        <time>2018-05-11T16:01:02Z</time>
      </trkpt>
      <trkpt lat="43.86074" lon="4.02954">
        <ele>181</ele>
        <time>2018-05-11T16:01:05Z</time>
      </trkpt>
      <trkpt lat="43.86073" lon="4.02953">
        <ele>181</ele>
        <time>2018-05-11T16:01:07Z</time>
      </trkpt>
      <trkpt lat="43.86073" lon="4.02953">
        <ele>181</ele>
        <time>2018-05-11T16:01:08Z</time>
      </trkpt>
      <trkpt lat="43.86074" lon="4.02954">
        <ele>181</ele>
        <time>2018-05-11T16:01:12Z</time>
      </trkpt>
      <trkpt lat="43.86075" lon="4.02955">
        <ele>181</ele>
        <time>2018-05-11T16:01:16Z</time>
      </trkpt>
      <trkpt lat="43.86074" lon="4.02955">
        <ele>181</ele>
        <time>2018-05-11T16:01:19Z</time>
      </trkpt>
      <trkpt lat="43.86074" lon="4.02955">
        <ele>181</ele>
        <time>2018-05-11T16:01:23Z</time>
      </trkpt>
      <trkpt lat="43.86073" lon="4.02955">
        <ele>181</ele>
        <time>2018-05-11T16:01:26Z</time>
      </trkpt>
      <trkpt lat="43.86073" lon="4.02955">
        <ele>181</ele>
        <time>2018-05-11T16:01:29Z</time>
      </trkpt>
      <trkpt lat="43.86073" lon="4.02955">
        <ele>181</ele>
        <time>2018-05-11T16:01:32Z</time>
      </trkpt>
      <trkpt lat="43.86075" lon="4.02957">
        <ele>181</ele>
        <time>2018-05-11T16:01:39Z</time>
      </trkpt>
      <trkpt lat="43.86074" lon="4.02961">
        <ele>181</ele>
        <time>2018-05-11T16:01:42Z</time>
      </trkpt>
      <trkpt lat="43.86073" lon="4.02963">
        <ele>181</ele>
        <time>2018-05-11T16:01:43Z</time>
      </trkpt>
      <trkpt lat="43.86071" lon="4.02965">
        <ele>181</ele>
        <time>2018-05-11T16:01:44Z</time>
      </trkpt>
      <trkpt lat="43.86069" lon="4.02967">
        <ele>181</ele>
        <time>2018-05-11T16:01:45Z</time>
      </trkpt>
      <trkpt lat="43.86067" lon="4.02968">
        <ele>181</ele>
        <time>2018-05-11T16:01:46Z</time>
      </trkpt>
      <trkpt lat="43.86064" lon="4.02969">
        <ele>181</ele>
        <time>2018-05-11T16:01:47Z</time>
      </trkpt>
      <trkpt lat="43.86062" lon="4.0297">
        <ele>181</ele>
        <time>2018-05-11T16:01:48Z</time>
      </trkpt>
      <trkpt lat="43.8606" lon="4.0297">
        <ele>181</ele>
        <time>2018-05-11T16:01:49Z</time>
      </trkpt>
      <trkpt lat="43.86055" lon="4.0297">
        <ele>182</ele>
        <time>2018-05-11T16:01:51Z</time>
      </trkpt>
      <trkpt lat="43.8605" lon="4.0297">
        <ele>182</ele>
        <time>2018-05-11T16:01:53Z</time>
      </trkpt>
      <trkpt lat="43.86039" lon="4.02967">
        <ele>182</ele>
        <time>2018-05-11T16:01:57Z</time>
      </trkpt>
      <trkpt lat="43.86029" lon="4.02965">
        <ele>183</ele>
        <time>2018-05-11T16:02:01Z</time>
      </trkpt>
      <trkpt lat="43.8602" lon="4.02964">
        <ele>183</ele>
        <time>2018-05-11T16:02:05Z</time>
      </trkpt>
      <trkpt lat="43.86004" lon="4.02961">
        <ele>183</ele>
        <time>2018-05-11T16:02:12Z</time>
      </trkpt>
      <trkpt lat="43.85994" lon="4.0296">
        <ele>184</ele>
        <time>2018-05-11T16:02:16Z</time>
      </trkpt>
      <trkpt lat="43.85973" lon="4.02972">
        <ele>184</ele>
        <time>2018-05-11T16:02:24Z</time>
      </trkpt>
      <trkpt lat="43.85953" lon="4.02983">
        <ele>184</ele>
        <time>2018-05-11T16:02:31Z</time>
      </trkpt>
      <trkpt lat="43.85948" lon="4.02987">
        <ele>184</ele>
        <time>2018-05-11T16:02:33Z</time>
      </trkpt>
      <trkpt lat="43.85946" lon="4.0299">
        <ele>184</ele>
        <time>2018-05-11T16:02:34Z</time>
      </trkpt>
      <trkpt lat="43.85944" lon="4.02992">
        <ele>184</ele>
        <time>2018-05-11T16:02:35Z</time>
      </trkpt>
      <trkpt lat="43.85924" lon="4.03007">
        <ele>183</ele>
        <time>2018-05-11T16:02:44Z</time>
      </trkpt>
      <trkpt lat="43.85906" lon="4.0302">
        <ele>183</ele>
        <time>2018-05-11T16:02:53Z</time>
      </trkpt>
      <trkpt lat="43.85886" lon="4.03033">
        <ele>182</ele>
        <time>2018-05-11T16:03:02Z</time>
      </trkpt>
      <trkpt lat="43.85869" lon="4.0305">
        <ele>182</ele>
        <time>2018-05-11T16:03:11Z</time>
      </trkpt>
      <trkpt lat="43.85851" lon="4.03069">
        <ele>183</ele>
        <time>2018-05-11T16:03:20Z</time>
      </trkpt>
      <trkpt lat="43.85836" lon="4.03088">
        <ele>183</ele>
        <time>2018-05-11T16:03:26Z</time>
      </trkpt>
      <trkpt lat="43.85819" lon="4.03112">
        <ele>181</ele>
        <time>2018-05-11T16:03:34Z</time>
      </trkpt>
      <trkpt lat="43.85803" lon="4.03131">
        <ele>181</ele>
        <time>2018-05-11T16:03:43Z</time>
      </trkpt>
      <trkpt lat="43.85794" lon="4.03159">
        <ele>181</ele>
        <time>2018-05-11T16:03:52Z</time>
      </trkpt>
      <trkpt lat="43.85785" lon="4.03189">
        <ele>182</ele>
        <time>2018-05-11T16:04:01Z</time>
      </trkpt>
      <trkpt lat="43.85776" lon="4.03217">
        <ele>183</ele>
        <time>2018-05-11T16:04:10Z</time>
      </trkpt>
      <trkpt lat="43.85762" lon="4.03235">
        <ele>185</ele>
        <time>2018-05-11T16:04:19Z</time>
      </trkpt>
      <trkpt lat="43.8576" lon="4.03236">
        <ele>185</ele>
        <time>2018-05-11T16:04:20Z</time>
      </trkpt>
      <trkpt lat="43.85758" lon="4.03236">
        <ele>185</ele>
        <time>2018-05-11T16:04:21Z</time>
      </trkpt>
      <trkpt lat="43.85755" lon="4.03236">
        <ele>185</ele>
        <time>2018-05-11T16:04:22Z</time>
      </trkpt>
      <trkpt lat="43.85753" lon="4.03235">
        <ele>185</ele>
        <time>2018-05-11T16:04:23Z</time>
      </trkpt>
      <trkpt lat="43.8575" lon="4.03234">
        <ele>185</ele>
        <time>2018-05-11T16:04:24Z</time>
      </trkpt>
      <trkpt lat="43.85748" lon="4.03232">
        <ele>184</ele>
        <time>2018-05-11T16:04:25Z</time>
      </trkpt>
      <trkpt lat="43.85745" lon="4.03229">
        <ele>184</ele>
        <time>2018-05-11T16:04:32Z</time>
      </trkpt>
      <trkpt lat="43.85745" lon="4.03229">
        <ele>184</ele>
        <time>2018-05-11T16:04:38Z</time>
      </trkpt>
      <trkpt lat="43.85746" lon="4.03229">
        <ele>184</ele>
        <time>2018-05-11T16:04:41Z</time>
      </trkpt>
      <trkpt lat="43.85745" lon="4.03229">
        <ele>184</ele>
        <time>2018-05-11T16:04:44Z</time>
      </trkpt>
      <trkpt lat="43.85743" lon="4.03228">
        <ele>184</ele>
        <time>2018-05-11T16:04:47Z</time>
      </trkpt>
      <trkpt lat="43.85738" lon="4.03224">
        <ele>183</ele>
        <time>2018-05-11T16:04:50Z</time>
      </trkpt>
      <trkpt lat="43.85719" lon="4.0321">
        <ele>182</ele>
        <time>2018-05-11T16:04:57Z</time>
      </trkpt>
      <trkpt lat="43.85706" lon="4.032">
        <ele>181</ele>
        <time>2018-05-11T16:05:02Z</time>
      </trkpt>
      <trkpt lat="43.857" lon="4.03194">
        <ele>180</ele>
        <time>2018-05-11T16:05:05Z</time>
      </trkpt>
      <trkpt lat="43.85697" lon="4.03192">
        <ele>180</ele>
        <time>2018-05-11T16:05:06Z</time>
      </trkpt>
      <trkpt lat="43.85694" lon="4.0319">
        <ele>180</ele>
        <time>2018-05-11T16:05:07Z</time>
      </trkpt>
      <trkpt lat="43.85691" lon="4.03187">
        <ele>180</ele>
        <time>2018-05-11T16:05:08Z</time>
      </trkpt>
      <trkpt lat="43.85688" lon="4.03185">
        <ele>180</ele>
        <time>2018-05-11T16:05:09Z</time>
      </trkpt>
      <trkpt lat="43.85685" lon="4.03182">
        <ele>179</ele>
        <time>2018-05-11T16:05:10Z</time>
      </trkpt>
      <trkpt lat="43.85674" lon="4.03172">
        <ele>178</ele>
        <time>2018-05-11T16:05:14Z</time>
      </trkpt>
      <trkpt lat="43.85665" lon="4.03166">
        <ele>176</ele>
        <time>2018-05-11T16:05:17Z</time>
      </trkpt>
      <trkpt lat="43.85655" lon="4.03157">
        <ele>173</ele>
        <time>2018-05-11T16:05:21Z</time>
      </trkpt>
      <trkpt lat="43.8564" lon="4.03145">
        <ele>171</ele>
        <time>2018-05-11T16:05:27Z</time>
      </trkpt>
      <trkpt lat="43.85619" lon="4.03129">
        <ele>169</ele>
        <time>2018-05-11T16:05:35Z</time>
      </trkpt>
      <trkpt lat="43.85601" lon="4.03107">
        <ele>170</ele>
        <time>2018-05-11T16:05:44Z</time>
      </trkpt>
      <trkpt lat="43.85582" lon="4.03086">
        <ele>172</ele>
        <time>2018-05-11T16:05:55Z</time>
      </trkpt>
      <trkpt lat="43.85568" lon="4.0307">
        <ele>176</ele>
        <time>2018-05-11T16:06:04Z</time>
      </trkpt>
      <trkpt lat="43.85553" lon="4.03055">
        <ele>178</ele>
        <time>2018-05-11T16:06:14Z</time>
      </trkpt>
      <trkpt lat="43.85542" lon="4.03041">
        <ele>179</ele>
        <time>2018-05-11T16:06:23Z</time>
      </trkpt>
      <trkpt lat="43.8554" lon="4.03038">
        <ele>179</ele>
        <time>2018-05-11T16:06:25Z</time>
      </trkpt>
      <trkpt lat="43.85539" lon="4.03037">
        <ele>179</ele>
        <time>2018-05-11T16:06:26Z</time>
      </trkpt>
      <trkpt lat="43.85538" lon="4.03035">
        <ele>180</ele>
        <time>2018-05-11T16:06:27Z</time>
      </trkpt>
      <trkpt lat="43.85538" lon="4.03033">
        <ele>180</ele>
        <time>2018-05-11T16:06:28Z</time>
      </trkpt>
      <trkpt lat="43.85537" lon="4.03031">
        <ele>180</ele>
        <time>2018-05-11T16:06:29Z</time>
      </trkpt>
      <trkpt lat="43.85525" lon="4.03018">
        <ele>182</ele>
        <time>2018-05-11T16:06:39Z</time>
      </trkpt>
      <trkpt lat="43.85503" lon="4.03007">
        <ele>186</ele>
        <time>2018-05-11T16:06:51Z</time>
      </trkpt>
      <trkpt lat="43.85498" lon="4.03004">
        <ele>188</ele>
        <time>2018-05-11T16:06:54Z</time>
      </trkpt>
      <trkpt lat="43.85496" lon="4.03004">
        <ele>188</ele>
        <time>2018-05-11T16:06:55Z</time>
      </trkpt>
      <trkpt lat="43.85494" lon="4.03003">
        <ele>188</ele>
        <time>2018-05-11T16:06:56Z</time>
      </trkpt>
      <trkpt lat="43.85492" lon="4.03002">
        <ele>188</ele>
        <time>2018-05-11T16:06:57Z</time>
      </trkpt>
      <trkpt lat="43.85491" lon="4.03001">
        <ele>188</ele>
        <time>2018-05-11T16:06:58Z</time>
      </trkpt>
      <trkpt lat="43.8549" lon="4.03001">
        <ele>188</ele>
        <time>2018-05-11T16:06:59Z</time>
      </trkpt>
      <trkpt lat="43.85488" lon="4.03001">
        <ele>187</ele>
        <time>2018-05-11T16:07:00Z</time>
      </trkpt>
      <trkpt lat="43.85465" lon="4.02998">
        <ele>189</ele>
        <time>2018-05-11T16:07:13Z</time>
      </trkpt>
      <trkpt lat="43.85445" lon="4.02995">
        <ele>189</ele>
        <time>2018-05-11T16:07:23Z</time>
      </trkpt>
      <trkpt lat="43.85444" lon="4.02995">
        <ele>189</ele>
        <time>2018-05-11T16:07:24Z</time>
      </trkpt>
      <trkpt lat="43.85443" lon="4.02995">
        <ele>190</ele>
        <time>2018-05-11T16:07:25Z</time>
      </trkpt>
      <trkpt lat="43.85438" lon="4.02994">
        <ele>190</ele>
        <time>2018-05-11T16:07:29Z</time>
      </trkpt>
      <trkpt lat="43.85435" lon="4.02994">
        <ele>190</ele>
        <time>2018-05-11T16:07:33Z</time>
      </trkpt>
      <trkpt lat="43.8543" lon="4.02996">
        <ele>190</ele>
        <time>2018-05-11T16:07:38Z</time>
      </trkpt>
      <trkpt lat="43.85426" lon="4.02998">
        <ele>191</ele>
        <time>2018-05-11T16:07:42Z</time>
      </trkpt>
      <trkpt lat="43.85424" lon="4.02997">
        <ele>191</ele>
        <time>2018-05-11T16:07:43Z</time>
      </trkpt>
      <trkpt lat="43.85423" lon="4.02998">
        <ele>191</ele>
        <time>2018-05-11T16:07:45Z</time>
      </trkpt>
      <trkpt lat="43.85421" lon="4.02998">
        <ele>191</ele>
        <time>2018-05-11T16:07:46Z</time>
      </trkpt>
      <trkpt lat="43.85416" lon="4.03">
        <ele>192</ele>
        <time>2018-05-11T16:07:50Z</time>
      </trkpt>
      <trkpt lat="43.85413" lon="4.03002">
        <ele>190</ele>
        <time>2018-05-11T16:07:53Z</time>
      </trkpt>
      <trkpt lat="43.8541" lon="4.03004">
        <ele>189</ele>
        <time>2018-05-11T16:07:56Z</time>
      </trkpt>
      <trkpt lat="43.85408" lon="4.03005">
        <ele>189</ele>
        <time>2018-05-11T16:07:58Z</time>
      </trkpt>
      <trkpt lat="43.85406" lon="4.03006">
        <ele>188</ele>
        <time>2018-05-11T16:08:01Z</time>
      </trkpt>
      <trkpt lat="43.85404" lon="4.03006">
        <ele>188</ele>
        <time>2018-05-11T16:08:03Z</time>
      </trkpt>
      <trkpt lat="43.85403" lon="4.03006">
        <ele>188</ele>
        <time>2018-05-11T16:08:04Z</time>
      </trkpt>
      <trkpt lat="43.85402" lon="4.03007">
        <ele>187</ele>
        <time>2018-05-11T16:08:05Z</time>
      </trkpt>
      <trkpt lat="43.854" lon="4.03008">
        <ele>187</ele>
        <time>2018-05-11T16:08:06Z</time>
      </trkpt>
      <trkpt lat="43.85397" lon="4.03009">
        <ele>186</ele>
        <time>2018-05-11T16:08:07Z</time>
      </trkpt>
      <trkpt lat="43.85379" lon="4.0302">
        <ele>184</ele>
        <time>2018-05-11T16:08:16Z</time>
      </trkpt>
      <trkpt lat="43.85358" lon="4.03035">
        <ele>182</ele>
        <time>2018-05-11T16:08:24Z</time>
      </trkpt>
      <trkpt lat="43.85338" lon="4.03046">
        <ele>182</ele>
        <time>2018-05-11T16:08:33Z</time>
      </trkpt>
      <trkpt lat="43.85325" lon="4.03054">
        <ele>181</ele>
        <time>2018-05-11T16:08:39Z</time>
      </trkpt>
      <trkpt lat="43.85304" lon="4.03064">
        <ele>182</ele>
        <time>2018-05-11T16:08:49Z</time>
      </trkpt>
      <trkpt lat="43.85292" lon="4.03064">
        <ele>183</ele>
        <time>2018-05-11T16:08:54Z</time>
      </trkpt>
      <trkpt lat="43.85285" lon="4.03065">
        <ele>183</ele>
        <time>2018-05-11T16:08:58Z</time>
      </trkpt>
      <trkpt lat="43.85276" lon="4.03066">
        <ele>184</ele>
        <time>2018-05-11T16:09:03Z</time>
      </trkpt>
      <trkpt lat="43.85274" lon="4.03066">
        <ele>184</ele>
        <time>2018-05-11T16:09:04Z</time>
      </trkpt>
      <trkpt lat="43.85273" lon="4.03066">
        <ele>184</ele>
        <time>2018-05-11T16:09:05Z</time>
      </trkpt>
      <trkpt lat="43.85271" lon="4.03066">
        <ele>184</ele>
        <time>2018-05-11T16:09:06Z</time>
      </trkpt>
      <trkpt lat="43.8527" lon="4.03067">
        <ele>184</ele>
        <time>2018-05-11T16:09:07Z</time>
      </trkpt>
      <trkpt lat="43.85268" lon="4.03067">
        <ele>184</ele>
        <time>2018-05-11T16:09:08Z</time>
      </trkpt>
      <trkpt lat="43.85267" lon="4.03068">
        <ele>185</ele>
        <time>2018-05-11T16:09:09Z</time>
      </trkpt>
      <trkpt lat="43.85265" lon="4.03068">
        <ele>185</ele>
        <time>2018-05-11T16:09:10Z</time>
      </trkpt>
      <trkpt lat="43.85263" lon="4.03068">
        <ele>185</ele>
        <time>2018-05-11T16:09:11Z</time>
      </trkpt>
      <trkpt lat="43.85262" lon="4.03068">
        <ele>185</ele>
        <time>2018-05-11T16:09:12Z</time>
      </trkpt>
      <trkpt lat="43.8526" lon="4.03067">
        <ele>185</ele>
        <time>2018-05-11T16:09:13Z</time>
      </trkpt>
      <trkpt lat="43.85229" lon="4.03074">
        <ele>188</ele>
        <time>2018-05-11T16:09:30Z</time>
      </trkpt>
      <trkpt lat="43.852" lon="4.03079">
        <ele>190</ele>
        <time>2018-05-11T16:09:45Z</time>
      </trkpt>
      <trkpt lat="43.85192" lon="4.03081">
        <ele>191</ele>
        <time>2018-05-11T16:09:51Z</time>
      </trkpt>
      <trkpt lat="43.85191" lon="4.03081">
        <ele>191</ele>
        <time>2018-05-11T16:09:52Z</time>
      </trkpt>
      <trkpt lat="43.85189" lon="4.03081">
        <ele>191</ele>
        <time>2018-05-11T16:09:53Z</time>
      </trkpt>
      <trkpt lat="43.85185" lon="4.03083">
        <ele>192</ele>
        <time>2018-05-11T16:09:56Z</time>
      </trkpt>
      <trkpt lat="43.85182" lon="4.03085">
        <ele>191</ele>
        <time>2018-05-11T16:09:57Z</time>
      </trkpt>
      <trkpt lat="43.8518" lon="4.03086">
        <ele>191</ele>
        <time>2018-05-11T16:09:58Z</time>
      </trkpt>
      <trkpt lat="43.85178" lon="4.03086">
        <ele>192</ele>
        <time>2018-05-11T16:09:59Z</time>
      </trkpt>
      <trkpt lat="43.85174" lon="4.03086">
        <ele>193</ele>
        <time>2018-05-11T16:10:01Z</time>
      </trkpt>
      <trkpt lat="43.85173" lon="4.03086">
        <ele>193</ele>
        <time>2018-05-11T16:10:02Z</time>
      </trkpt>
      <trkpt lat="43.85171" lon="4.03086">
        <ele>194</ele>
        <time>2018-05-11T16:10:03Z</time>
      </trkpt>
      <trkpt lat="43.85169" lon="4.03087">
        <ele>194</ele>
        <time>2018-05-11T16:10:04Z</time>
      </trkpt>
      <trkpt lat="43.85166" lon="4.03088">
        <ele>195</ele>
        <time>2018-05-11T16:10:05Z</time>
      </trkpt>
      <trkpt lat="43.85132" lon="4.03094">
        <ele>192</ele>
        <time>2018-05-11T16:10:21Z</time>
      </trkpt>
      <trkpt lat="43.85101" lon="4.03093">
        <ele>194</ele>
        <time>2018-05-11T16:10:35Z</time>
      </trkpt>
      <trkpt lat="43.85078" lon="4.03084">
        <ele>198</ele>
        <time>2018-05-11T16:10:47Z</time>
      </trkpt>
      <trkpt lat="43.85073" lon="4.03082">
        <ele>199</ele>
        <time>2018-05-11T16:10:50Z</time>
      </trkpt>
      <trkpt lat="43.85071" lon="4.03081">
        <ele>199</ele>
        <time>2018-05-11T16:10:51Z</time>
      </trkpt>
      <trkpt lat="43.85069" lon="4.03081">
        <ele>199</ele>
        <time>2018-05-11T16:10:52Z</time>
      </trkpt>
      <trkpt lat="43.85053" lon="4.0308">
        <ele>199</ele>
        <time>2018-05-11T16:11:01Z</time>
      </trkpt>
      <trkpt lat="43.85051" lon="4.0308">
        <ele>199</ele>
        <time>2018-05-11T16:11:02Z</time>
      </trkpt>
      <trkpt lat="43.85049" lon="4.0308">
        <ele>199</ele>
        <time>2018-05-11T16:11:03Z</time>
      </trkpt>
      <trkpt lat="43.85048" lon="4.03079">
        <ele>199</ele>
        <time>2018-05-11T16:11:04Z</time>
      </trkpt>
      <trkpt lat="43.85045" lon="4.03078">
        <ele>199</ele>
        <time>2018-05-11T16:11:05Z</time>
      </trkpt>
      <trkpt lat="43.85043" lon="4.03078">
        <ele>199</ele>
        <time>2018-05-11T16:11:06Z</time>
      </trkpt>
      <trkpt lat="43.85041" lon="4.03077">
        <ele>199</ele>
        <time>2018-05-11T16:11:07Z</time>
      </trkpt>
      <trkpt lat="43.85037" lon="4.03076">
        <ele>199</ele>
        <time>2018-05-11T16:11:09Z</time>
      </trkpt>
      <trkpt lat="43.85035" lon="4.03076">
        <ele>199</ele>
        <time>2018-05-11T16:11:10Z</time>
      </trkpt>
      <trkpt lat="43.85034" lon="4.03076">
        <ele>200</ele>
        <time>2018-05-11T16:11:11Z</time>
      </trkpt>
      <trkpt lat="43.85023" lon="4.03076">
        <ele>200</ele>
        <time>2018-05-11T16:11:17Z</time>
      </trkpt>
      <trkpt lat="43.85022" lon="4.03076">
        <ele>200</ele>
        <time>2018-05-11T16:11:18Z</time>
      </trkpt>
      <trkpt lat="43.8502" lon="4.03076">
        <ele>200</ele>
        <time>2018-05-11T16:11:19Z</time>
      </trkpt>
      <trkpt lat="43.85019" lon="4.03076">
        <ele>200</ele>
        <time>2018-05-11T16:11:20Z</time>
      </trkpt>
      <trkpt lat="43.85017" lon="4.03075">
        <ele>200</ele>
        <time>2018-05-11T16:11:21Z</time>
      </trkpt>
      <trkpt lat="43.85016" lon="4.03074">
        <ele>201</ele>
        <time>2018-05-11T16:11:22Z</time>
      </trkpt>
      <trkpt lat="43.85014" lon="4.03073">
        <ele>201</ele>
        <time>2018-05-11T16:11:23Z</time>
      </trkpt>
      <trkpt lat="43.85012" lon="4.03072">
        <ele>201</ele>
        <time>2018-05-11T16:11:24Z</time>
      </trkpt>
      <trkpt lat="43.85011" lon="4.03071">
        <ele>201</ele>
        <time>2018-05-11T16:11:25Z</time>
      </trkpt>
      <trkpt lat="43.85009" lon="4.03069">
        <ele>201</ele>
        <time>2018-05-11T16:11:26Z</time>
      </trkpt>
      <trkpt lat="43.84993" lon="4.03061">
        <ele>198</ele>
        <time>2018-05-11T16:11:34Z</time>
      </trkpt>
      <trkpt lat="43.8498" lon="4.03054">
        <ele>197</ele>
        <time>2018-05-11T16:11:40Z</time>
      </trkpt>
      <trkpt lat="43.84964" lon="4.03048">
        <ele>196</ele>
        <time>2018-05-11T16:11:48Z</time>
      </trkpt>
      <trkpt lat="43.84946" lon="4.03039">
        <ele>195</ele>
        <time>2018-05-11T16:11:58Z</time>
      </trkpt>
      <trkpt lat="43.84934" lon="4.03036">
        <ele>195</ele>
        <time>2018-05-11T16:12:04Z</time>
      </trkpt>
      <trkpt lat="43.84917" lon="4.03031">
        <ele>194</ele>
        <time>2018-05-11T16:12:11Z</time>
      </trkpt>
      <trkpt lat="43.84895" lon="4.03028">
        <ele>188</ele>
        <time>2018-05-11T16:12:20Z</time>
      </trkpt>
      <trkpt lat="43.84884" lon="4.03026">
        <ele>187</ele>
        <time>2018-05-11T16:12:24Z</time>
      </trkpt>
      <trkpt lat="43.84882" lon="4.03024">
        <ele>187</ele>
        <time>2018-05-11T16:12:25Z</time>
      </trkpt>
      <trkpt lat="43.84879" lon="4.03022">
        <ele>187</ele>
        <time>2018-05-11T16:12:26Z</time>
      </trkpt>
      <trkpt lat="43.8486" lon="4.03009">
        <ele>187</ele>
        <time>2018-05-11T16:12:35Z</time>
      </trkpt>
      <trkpt lat="43.84848" lon="4.03003">
        <ele>187</ele>
        <time>2018-05-11T16:12:40Z</time>
      </trkpt>
      <trkpt lat="43.84845" lon="4.03001">
        <ele>187</ele>
        <time>2018-05-11T16:12:42Z</time>
      </trkpt>
      <trkpt lat="43.84844" lon="4.02999">
        <ele>187</ele>
        <time>2018-05-11T16:12:43Z</time>
      </trkpt>
      <trkpt lat="43.84842" lon="4.02997">
        <ele>187</ele>
        <time>2018-05-11T16:12:44Z</time>
      </trkpt>
      <trkpt lat="43.8484" lon="4.02996">
        <ele>187</ele>
        <time>2018-05-11T16:12:45Z</time>
      </trkpt>
      <trkpt lat="43.84838" lon="4.02995">
        <ele>187</ele>
        <time>2018-05-11T16:12:46Z</time>
      </trkpt>
      <trkpt lat="43.84836" lon="4.02994">
        <ele>187</ele>
        <time>2018-05-11T16:12:47Z</time>
      </trkpt>
      <trkpt lat="43.84835" lon="4.02992">
        <ele>187</ele>
        <time>2018-05-11T16:12:48Z</time>
      </trkpt>
      <trkpt lat="43.84831" lon="4.0299">
        <ele>188</ele>
        <time>2018-05-11T16:12:50Z</time>
      </trkpt>
      <trkpt lat="43.8483" lon="4.02988">
        <ele>188</ele>
        <time>2018-05-11T16:12:51Z</time>
      </trkpt>
      <trkpt lat="43.84815" lon="4.0298">
        <ele>189</ele>
        <time>2018-05-11T16:12:58Z</time>
      </trkpt>
      <trkpt lat="43.84809" lon="4.02971">
        <ele>189</ele>
        <time>2018-05-11T16:13:03Z</time>
      </trkpt>
      <trkpt lat="43.84809" lon="4.02969">
        <ele>189</ele>
        <time>2018-05-11T16:13:04Z</time>
      </trkpt>
      <trkpt lat="43.84809" lon="4.02967">
        <ele>189</ele>
        <time>2018-05-11T16:13:05Z</time>
      </trkpt>
      <trkpt lat="43.84809" lon="4.02966">
        <ele>189</ele>
        <time>2018-05-11T16:13:06Z</time>
      </trkpt>
      <trkpt lat="43.84807" lon="4.02963">
        <ele>190</ele>
        <time>2018-05-11T16:13:07Z</time>
      </trkpt>
      <trkpt lat="43.84805" lon="4.02962">
        <ele>190</ele>
        <time>2018-05-11T16:13:08Z</time>
      </trkpt>
      <trkpt lat="43.84804" lon="4.0296">
        <ele>190</ele>
        <time>2018-05-11T16:13:09Z</time>
      </trkpt>
      <trkpt lat="43.84802" lon="4.02958">
        <ele>190</ele>
        <time>2018-05-11T16:13:10Z</time>
      </trkpt>
      <trkpt lat="43.84802" lon="4.02956">
        <ele>190</ele>
        <time>2018-05-11T16:13:11Z</time>
      </trkpt>
      <trkpt lat="43.84801" lon="4.02954">
        <ele>190</ele>
        <time>2018-05-11T16:13:12Z</time>
      </trkpt>
      <trkpt lat="43.848" lon="4.02953">
        <ele>190</ele>
        <time>2018-05-11T16:13:13Z</time>
      </trkpt>
      <trkpt lat="43.84796" lon="4.02945">
        <ele>190</ele>
        <time>2018-05-11T16:13:19Z</time>
      </trkpt>
      <trkpt lat="43.84795" lon="4.02944">
        <ele>191</ele>
        <time>2018-05-11T16:13:21Z</time>
      </trkpt>
      <trkpt lat="43.84794" lon="4.02942">
        <ele>191</ele>
        <time>2018-05-11T16:13:22Z</time>
      </trkpt>
      <trkpt lat="43.84794" lon="4.02939">
        <ele>191</ele>
        <time>2018-05-11T16:13:23Z</time>
      </trkpt>
      <trkpt lat="43.84793" lon="4.02937">
        <ele>191</ele>
        <time>2018-05-11T16:13:24Z</time>
      </trkpt>
      <trkpt lat="43.84793" lon="4.02934">
        <ele>191</ele>
        <time>2018-05-11T16:13:28Z</time>
      </trkpt>
      <trkpt lat="43.84792" lon="4.0293">
        <ele>191</ele>
        <time>2018-05-11T16:13:31Z</time>
      </trkpt>
      <trkpt lat="43.84792" lon="4.02927">
        <ele>191</ele>
        <time>2018-05-11T16:13:32Z</time>
      </trkpt>
      <trkpt lat="43.84791" lon="4.02925">
        <ele>191</ele>
        <time>2018-05-11T16:13:33Z</time>
      </trkpt>
      <trkpt lat="43.84789" lon="4.02923">
        <ele>192</ele>
        <time>2018-05-11T16:13:34Z</time>
      </trkpt>
      <trkpt lat="43.84788" lon="4.02921">
        <ele>192</ele>
        <time>2018-05-11T16:13:35Z</time>
      </trkpt>
      <trkpt lat="43.84787" lon="4.02919">
        <ele>192</ele>
        <time>2018-05-11T16:13:36Z</time>
      </trkpt>
      <trkpt lat="43.84785" lon="4.02917">
        <ele>192</ele>
        <time>2018-05-11T16:13:37Z</time>
      </trkpt>
      <trkpt lat="43.84784" lon="4.02914">
        <ele>192</ele>
        <time>2018-05-11T16:13:38Z</time>
      </trkpt>
      <trkpt lat="43.84783" lon="4.02911">
        <ele>192</ele>
        <time>2018-05-11T16:13:39Z</time>
      </trkpt>
      <trkpt lat="43.84768" lon="4.02897">
        <ele>193</ele>
        <time>2018-05-11T16:13:47Z</time>
      </trkpt>
      <trkpt lat="43.84749" lon="4.02877">
        <ele>201</ele>
        <time>2018-05-11T16:13:58Z</time>
      </trkpt>
      <trkpt lat="43.84739" lon="4.02868">
        <ele>200</ele>
        <time>2018-05-11T16:14:06Z</time>
      </trkpt>
      <trkpt lat="43.84719" lon="4.02845">
        <ele>201</ele>
        <time>2018-05-11T16:14:19Z</time>
      </trkpt>
      <trkpt lat="43.84704" lon="4.02833">
        <ele>198</ele>
        <time>2018-05-11T16:14:28Z</time>
      </trkpt>
      <trkpt lat="43.84703" lon="4.02833">
        <ele>198</ele>
        <time>2018-05-11T16:14:29Z</time>
      </trkpt>
      <trkpt lat="43.84701" lon="4.02832">
        <ele>199</ele>
        <time>2018-05-11T16:14:30Z</time>
      </trkpt>
      <trkpt lat="43.84697" lon="4.02825">
        <ele>199</ele>
        <time>2018-05-11T16:14:36Z</time>
      </trkpt>
      <trkpt lat="43.84689" lon="4.02815">
        <ele>199</ele>
        <time>2018-05-11T16:14:43Z</time>
      </trkpt>
      <trkpt lat="43.84688" lon="4.02815">
        <ele>199</ele>
        <time>2018-05-11T16:14:44Z</time>
      </trkpt>
      <trkpt lat="43.84684" lon="4.02811">
        <ele>199</ele>
        <time>2018-05-11T16:14:47Z</time>
      </trkpt>
      <trkpt lat="43.84677" lon="4.02806">
        <ele>199</ele>
        <time>2018-05-11T16:14:52Z</time>
      </trkpt>
      <trkpt lat="43.84667" lon="4.02787">
        <ele>198</ele>
        <time>2018-05-11T16:15:11Z</time>
      </trkpt>
      <trkpt lat="43.84667" lon="4.02787">
        <ele>200</ele>
        <time>2018-05-11T16:15:12Z</time>
      </trkpt>
      <trkpt lat="43.84665" lon="4.02786">
        <ele>200</ele>
        <time>2018-05-11T16:15:14Z</time>
      </trkpt>
      <trkpt lat="43.84664" lon="4.02786">
        <ele>200</ele>
        <time>2018-05-11T16:15:15Z</time>
      </trkpt>
      <trkpt lat="43.84663" lon="4.02785">
        <ele>200</ele>
        <time>2018-05-11T16:15:16Z</time>
      </trkpt>
      <trkpt lat="43.84661" lon="4.02784">
        <ele>200</ele>
        <time>2018-05-11T16:15:17Z</time>
      </trkpt>
      <trkpt lat="43.84659" lon="4.02784">
        <ele>200</ele>
        <time>2018-05-11T16:15:18Z</time>
      </trkpt>
      <trkpt lat="43.84659" lon="4.02783">
        <ele>200</ele>
        <time>2018-05-11T16:15:19Z</time>
      </trkpt>
      <trkpt lat="43.84657" lon="4.02782">
        <ele>200</ele>
        <time>2018-05-11T16:15:20Z</time>
      </trkpt>
      <trkpt lat="43.84656" lon="4.02781">
        <ele>200</ele>
        <time>2018-05-11T16:15:21Z</time>
      </trkpt>
      <trkpt lat="43.84654" lon="4.02781">
        <ele>200</ele>
        <time>2018-05-11T16:15:22Z</time>
      </trkpt>
      <trkpt lat="43.84653" lon="4.0278">
        <ele>200</ele>
        <time>2018-05-11T16:15:23Z</time>
      </trkpt>
      <trkpt lat="43.84652" lon="4.0278">
        <ele>199</ele>
        <time>2018-05-11T16:15:24Z</time>
      </trkpt>
      <trkpt lat="43.84634" lon="4.02781">
        <ele>199</ele>
        <time>2018-05-11T16:15:36Z</time>
      </trkpt>
      <trkpt lat="43.84629" lon="4.02784">
        <ele>199</ele>
        <time>2018-05-11T16:15:40Z</time>
      </trkpt>
      <trkpt lat="43.84622" lon="4.02786">
        <ele>199</ele>
        <time>2018-05-11T16:15:45Z</time>
      </trkpt>
      <trkpt lat="43.84619" lon="4.02785">
        <ele>199</ele>
        <time>2018-05-11T16:15:47Z</time>
      </trkpt>
      <trkpt lat="43.84612" lon="4.02776">
        <ele>199</ele>
        <time>2018-05-11T16:15:56Z</time>
      </trkpt>
      <trkpt lat="43.84611" lon="4.02775">
        <ele>199</ele>
        <time>2018-05-11T16:15:57Z</time>
      </trkpt>
      <trkpt lat="43.8461" lon="4.02774">
        <ele>199</ele>
        <time>2018-05-11T16:15:58Z</time>
      </trkpt>
      <trkpt lat="43.84609" lon="4.02773">
        <ele>199</ele>
        <time>2018-05-11T16:15:59Z</time>
      </trkpt>
      <trkpt lat="43.84608" lon="4.02772">
        <ele>199</ele>
        <time>2018-05-11T16:16:00Z</time>
      </trkpt>
      <trkpt lat="43.84603" lon="4.02765">
        <ele>199</ele>
        <time>2018-05-11T16:16:05Z</time>
      </trkpt>
      <trkpt lat="43.84596" lon="4.02757">
        <ele>198</ele>
        <time>2018-05-11T16:16:11Z</time>
      </trkpt>
      <trkpt lat="43.84591" lon="4.02753">
        <ele>198</ele>
        <time>2018-05-11T16:16:15Z</time>
      </trkpt>
      <trkpt lat="43.84583" lon="4.02747">
        <ele>197</ele>
        <time>2018-05-11T16:16:22Z</time>
      </trkpt>
      <trkpt lat="43.84576" lon="4.02743">
        <ele>194</ele>
        <time>2018-05-11T16:16:27Z</time>
      </trkpt>
      <trkpt lat="43.84572" lon="4.0274">
        <ele>193</ele>
        <time>2018-05-11T16:16:31Z</time>
      </trkpt>
      <trkpt lat="43.84568" lon="4.02734">
        <ele>192</ele>
        <time>2018-05-11T16:16:36Z</time>
      </trkpt>
      <trkpt lat="43.84568" lon="4.02733">
        <ele>191</ele>
        <time>2018-05-11T16:16:37Z</time>
      </trkpt>
      <trkpt lat="43.84552" lon="4.02707">
        <ele>189</ele>
        <time>2018-05-11T16:16:55Z</time>
      </trkpt>
      <trkpt lat="43.84546" lon="4.02699">
        <ele>188</ele>
        <time>2018-05-11T16:17:03Z</time>
      </trkpt>
      <trkpt lat="43.84545" lon="4.02697">
        <ele>188</ele>
        <time>2018-05-11T16:17:04Z</time>
      </trkpt>
      <trkpt lat="43.84545" lon="4.02696">
        <ele>188</ele>
        <time>2018-05-11T16:17:05Z</time>
      </trkpt>
      <trkpt lat="43.84543" lon="4.02695">
        <ele>188</ele>
        <time>2018-05-11T16:17:06Z</time>
      </trkpt>
      <trkpt lat="43.84543" lon="4.02693">
        <ele>188</ele>
        <time>2018-05-11T16:17:07Z</time>
      </trkpt>
      <trkpt lat="43.84542" lon="4.02691">
        <ele>188</ele>
        <time>2018-05-11T16:17:08Z</time>
      </trkpt>
      <trkpt lat="43.84542" lon="4.02689">
        <ele>188</ele>
        <time>2018-05-11T16:17:09Z</time>
      </trkpt>
      <trkpt lat="43.84542" lon="4.02687">
        <ele>188</ele>
        <time>2018-05-11T16:17:10Z</time>
      </trkpt>
      <trkpt lat="43.84542" lon="4.02685">
        <ele>188</ele>
        <time>2018-05-11T16:17:11Z</time>
      </trkpt>
      <trkpt lat="43.84542" lon="4.02683">
        <ele>188</ele>
        <time>2018-05-11T16:17:12Z</time>
      </trkpt>
      <trkpt lat="43.84541" lon="4.02681">
        <ele>188</ele>
        <time>2018-05-11T16:17:13Z</time>
      </trkpt>
      <trkpt lat="43.8454" lon="4.02679">
        <ele>188</ele>
        <time>2018-05-11T16:17:14Z</time>
      </trkpt>
      <trkpt lat="43.84539" lon="4.02678">
        <ele>188</ele>
        <time>2018-05-11T16:17:15Z</time>
      </trkpt>
      <trkpt lat="43.84539" lon="4.02677">
        <ele>188</ele>
        <time>2018-05-11T16:17:16Z</time>
      </trkpt>
      <trkpt lat="43.84536" lon="4.02672">
        <ele>188</ele>
        <time>2018-05-11T16:17:19Z</time>
      </trkpt>
      <trkpt lat="43.84533" lon="4.02667">
        <ele>185</ele>
        <time>2018-05-11T16:17:23Z</time>
      </trkpt>
      <trkpt lat="43.84532" lon="4.02665">
        <ele>185</ele>
        <time>2018-05-11T16:17:24Z</time>
      </trkpt>
      <trkpt lat="43.84527" lon="4.02656">
        <ele>185</ele>
        <time>2018-05-11T16:17:30Z</time>
      </trkpt>
      <trkpt lat="43.84527" lon="4.02654">
        <ele>184</ele>
        <time>2018-05-11T16:17:31Z</time>
      </trkpt>
      <trkpt lat="43.84526" lon="4.02652">
        <ele>184</ele>
        <time>2018-05-11T16:17:33Z</time>
      </trkpt>
      <trkpt lat="43.84522" lon="4.02647">
        <ele>184</ele>
        <time>2018-05-11T16:17:39Z</time>
      </trkpt>
      <trkpt lat="43.84521" lon="4.02646">
        <ele>184</ele>
        <time>2018-05-11T16:17:40Z</time>
      </trkpt>
      <trkpt lat="43.8452" lon="4.02645">
        <ele>184</ele>
        <time>2018-05-11T16:17:41Z</time>
      </trkpt>
      <trkpt lat="43.84519" lon="4.02644">
        <ele>184</ele>
        <time>2018-05-11T16:17:42Z</time>
      </trkpt>
      <trkpt lat="43.84518" lon="4.02643">
        <ele>184</ele>
        <time>2018-05-11T16:17:43Z</time>
      </trkpt>
      <trkpt lat="43.84514" lon="4.02638">
        <ele>184</ele>
        <time>2018-05-11T16:17:46Z</time>
      </trkpt>
      <trkpt lat="43.84499" lon="4.02623">
        <ele>178</ele>
        <time>2018-05-11T16:17:55Z</time>
      </trkpt>
      <trkpt lat="43.84498" lon="4.02622">
        <ele>178</ele>
        <time>2018-05-11T16:17:56Z</time>
      </trkpt>
      <trkpt lat="43.84498" lon="4.02621">
        <ele>178</ele>
        <time>2018-05-11T16:17:57Z</time>
      </trkpt>
      <trkpt lat="43.84497" lon="4.0262">
        <ele>178</ele>
        <time>2018-05-11T16:17:58Z</time>
      </trkpt>
      <trkpt lat="43.84496" lon="4.02618">
        <ele>178</ele>
        <time>2018-05-11T16:17:59Z</time>
      </trkpt>
      <trkpt lat="43.84494" lon="4.02617">
        <ele>178</ele>
        <time>2018-05-11T16:18:00Z</time>
      </trkpt>
      <trkpt lat="43.84493" lon="4.02615">
        <ele>178</ele>
        <time>2018-05-11T16:18:01Z</time>
      </trkpt>
      <trkpt lat="43.84492" lon="4.02614">
        <ele>178</ele>
        <time>2018-05-11T16:18:02Z</time>
      </trkpt>
      <trkpt lat="43.84491" lon="4.02613">
        <ele>177</ele>
        <time>2018-05-11T16:18:03Z</time>
      </trkpt>
      <trkpt lat="43.8449" lon="4.02612">
        <ele>177</ele>
        <time>2018-05-11T16:18:04Z</time>
      </trkpt>
      <trkpt lat="43.84489" lon="4.02611">
        <ele>177</ele>
        <time>2018-05-11T16:18:05Z</time>
      </trkpt>
      <trkpt lat="43.84487" lon="4.02607">
        <ele>177</ele>
        <time>2018-05-11T16:18:09Z</time>
      </trkpt>
      <trkpt lat="43.84486" lon="4.02606">
        <ele>177</ele>
        <time>2018-05-11T16:18:10Z</time>
      </trkpt>
      <trkpt lat="43.84483" lon="4.026">
        <ele>177</ele>
        <time>2018-05-11T16:18:16Z</time>
      </trkpt>
      <trkpt lat="43.84469" lon="4.02591">
        <ele>176</ele>
        <time>2018-05-11T16:18:24Z</time>
      </trkpt>
      <trkpt lat="43.84446" lon="4.02582">
        <ele>171</ele>
        <time>2018-05-11T16:18:37Z</time>
      </trkpt>
      <trkpt lat="43.8444" lon="4.02575">
        <ele>170</ele>
        <time>2018-05-11T16:18:43Z</time>
      </trkpt>
      <trkpt lat="43.84439" lon="4.02574">
        <ele>170</ele>
        <time>2018-05-11T16:18:44Z</time>
      </trkpt>
      <trkpt lat="43.84439" lon="4.02572">
        <ele>170</ele>
        <time>2018-05-11T16:18:45Z</time>
      </trkpt>
      <trkpt lat="43.84438" lon="4.02571">
        <ele>170</ele>
        <time>2018-05-11T16:18:46Z</time>
      </trkpt>
      <trkpt lat="43.84436" lon="4.0257">
        <ele>170</ele>
        <time>2018-05-11T16:18:47Z</time>
      </trkpt>
      <trkpt lat="43.84435" lon="4.02569">
        <ele>170</ele>
        <time>2018-05-11T16:18:48Z</time>
      </trkpt>
      <trkpt lat="43.84434" lon="4.02569">
        <ele>170</ele>
        <time>2018-05-11T16:18:49Z</time>
      </trkpt>
      <trkpt lat="43.84432" lon="4.02567">
        <ele>170</ele>
        <time>2018-05-11T16:18:50Z</time>
      </trkpt>
      <trkpt lat="43.84431" lon="4.02566">
        <ele>170</ele>
        <time>2018-05-11T16:18:51Z</time>
      </trkpt>
      <trkpt lat="43.8443" lon="4.02564">
        <ele>170</ele>
        <time>2018-05-11T16:18:52Z</time>
      </trkpt>
      <trkpt lat="43.84428" lon="4.02563">
        <ele>170</ele>
        <time>2018-05-11T16:18:53Z</time>
      </trkpt>
      <trkpt lat="43.84427" lon="4.02561">
        <ele>169</ele>
        <time>2018-05-11T16:18:54Z</time>
      </trkpt>
      <trkpt lat="43.8442" lon="4.02553">
        <ele>169</ele>
        <time>2018-05-11T16:18:58Z</time>
      </trkpt>
      <trkpt lat="43.84416" lon="4.0255">
        <ele>163</ele>
        <time>2018-05-11T16:19:00Z</time>
      </trkpt>
      <trkpt lat="43.84407" lon="4.02545">
        <ele>162</ele>
        <time>2018-05-11T16:19:04Z</time>
      </trkpt>
      <trkpt lat="43.84406" lon="4.02542">
        <ele>162</ele>
        <time>2018-05-11T16:19:05Z</time>
      </trkpt>
      <trkpt lat="43.84404" lon="4.0254">
        <ele>162</ele>
        <time>2018-05-11T16:19:06Z</time>
      </trkpt>
      <trkpt lat="43.84402" lon="4.02537">
        <ele>162</ele>
        <time>2018-05-11T16:19:07Z</time>
      </trkpt>
      <trkpt lat="43.844" lon="4.02535">
        <ele>161</ele>
        <time>2018-05-11T16:19:08Z</time>
      </trkpt>
      <trkpt lat="43.84391" lon="4.02527">
        <ele>161</ele>
        <time>2018-05-11T16:19:13Z</time>
      </trkpt>
      <trkpt lat="43.84389" lon="4.02525">
        <ele>161</ele>
        <time>2018-05-11T16:19:14Z</time>
      </trkpt>
      <trkpt lat="43.84387" lon="4.02523">
        <ele>161</ele>
        <time>2018-05-11T16:19:15Z</time>
      </trkpt>
      <trkpt lat="43.8438" lon="4.02516">
        <ele>160</ele>
        <time>2018-05-11T16:19:19Z</time>
      </trkpt>
      <trkpt lat="43.84359" lon="4.02502">
        <ele>159</ele>
        <time>2018-05-11T16:19:30Z</time>
      </trkpt>
      <trkpt lat="43.84348" lon="4.02494">
        <ele>156</ele>
        <time>2018-05-11T16:19:35Z</time>
      </trkpt>
      <trkpt lat="43.84343" lon="4.02484">
        <ele>156</ele>
        <time>2018-05-11T16:19:40Z</time>
      </trkpt>
      <trkpt lat="43.84343" lon="4.02482">
        <ele>155</ele>
        <time>2018-05-11T16:19:41Z</time>
      </trkpt>
      <trkpt lat="43.8434" lon="4.02472">
        <ele>154</ele>
        <time>2018-05-11T16:19:45Z</time>
      </trkpt>
      <trkpt lat="43.84339" lon="4.02471">
        <ele>154</ele>
        <time>2018-05-11T16:19:46Z</time>
      </trkpt>
      <trkpt lat="43.84338" lon="4.02469">
        <ele>154</ele>
        <time>2018-05-11T16:19:47Z</time>
      </trkpt>
      <trkpt lat="43.84337" lon="4.02467">
        <ele>153</ele>
        <time>2018-05-11T16:19:48Z</time>
      </trkpt>
      <trkpt lat="43.84336" lon="4.02465">
        <ele>153</ele>
        <time>2018-05-11T16:19:49Z</time>
      </trkpt>
      <trkpt lat="43.84335" lon="4.02463">
        <ele>153</ele>
        <time>2018-05-11T16:19:50Z</time>
      </trkpt>
      <trkpt lat="43.84335" lon="4.02462">
        <ele>153</ele>
        <time>2018-05-11T16:19:51Z</time>
      </trkpt>
      <trkpt lat="43.84333" lon="4.0246">
        <ele>144</ele>
        <time>2018-05-11T16:19:52Z</time>
      </trkpt>
      <trkpt lat="43.84332" lon="4.02458">
        <ele>144</ele>
        <time>2018-05-11T16:19:53Z</time>
      </trkpt>
      <trkpt lat="43.84332" lon="4.02457">
        <ele>144</ele>
        <time>2018-05-11T16:19:54Z</time>
      </trkpt>
      <trkpt lat="43.84331" lon="4.02455">
        <ele>144</ele>
        <time>2018-05-11T16:19:55Z</time>
      </trkpt>
      <trkpt lat="43.8433" lon="4.02453">
        <ele>143</ele>
        <time>2018-05-11T16:19:56Z</time>
      </trkpt>
      <trkpt lat="43.84329" lon="4.02451">
        <ele>143</ele>
        <time>2018-05-11T16:19:57Z</time>
      </trkpt>
      <trkpt lat="43.84324" lon="4.02443">
        <ele>143</ele>
        <time>2018-05-11T16:20:01Z</time>
      </trkpt>
      <trkpt lat="43.84317" lon="4.02434">
        <ele>142</ele>
        <time>2018-05-11T16:20:06Z</time>
      </trkpt>
      <trkpt lat="43.84314" lon="4.02431">
        <ele>142</ele>
        <time>2018-05-11T16:20:08Z</time>
      </trkpt>
      <trkpt lat="43.84313" lon="4.02428">
        <ele>141</ele>
        <time>2018-05-11T16:20:09Z</time>
      </trkpt>
      <trkpt lat="43.84312" lon="4.02426">
        <ele>141</ele>
        <time>2018-05-11T16:20:10Z</time>
      </trkpt>
      <trkpt lat="43.84311" lon="4.02425">
        <ele>141</ele>
        <time>2018-05-11T16:20:11Z</time>
      </trkpt>
      <trkpt lat="43.8431" lon="4.02423">
        <ele>141</ele>
        <time>2018-05-11T16:20:12Z</time>
      </trkpt>
      <trkpt lat="43.84309" lon="4.0242">
        <ele>141</ele>
        <time>2018-05-11T16:20:13Z</time>
      </trkpt>
      <trkpt lat="43.84308" lon="4.02418">
        <ele>141</ele>
        <time>2018-05-11T16:20:14Z</time>
      </trkpt>
      <trkpt lat="43.84307" lon="4.02416">
        <ele>135</ele>
        <time>2018-05-11T16:20:15Z</time>
      </trkpt>
      <trkpt lat="43.84307" lon="4.02401">
        <ele>134</ele>
        <time>2018-05-11T16:20:21Z</time>
      </trkpt>
      <trkpt lat="43.84305" lon="4.02395">
        <ele>133</ele>
        <time>2018-05-11T16:20:27Z</time>
      </trkpt>
      <trkpt lat="43.84304" lon="4.02386">
        <ele>131</ele>
        <time>2018-05-11T16:20:31Z</time>
      </trkpt>
      <trkpt lat="43.84303" lon="4.02384">
        <ele>131</ele>
        <time>2018-05-11T16:20:32Z</time>
      </trkpt>
      <trkpt lat="43.84301" lon="4.02384">
        <ele>131</ele>
        <time>2018-05-11T16:20:34Z</time>
      </trkpt>
      <trkpt lat="43.84289" lon="4.02389">
        <ele>131</ele>
        <time>2018-05-11T16:20:40Z</time>
      </trkpt>
      <trkpt lat="43.84287" lon="4.0239">
        <ele>130</ele>
        <time>2018-05-11T16:20:41Z</time>
      </trkpt>
      <trkpt lat="43.84286" lon="4.0239">
        <ele>130</ele>
        <time>2018-05-11T16:20:42Z</time>
      </trkpt>
      <trkpt lat="43.84284" lon="4.02389">
        <ele>130</ele>
        <time>2018-05-11T16:20:43Z</time>
      </trkpt>
      <trkpt lat="43.84282" lon="4.02388">
        <ele>130</ele>
        <time>2018-05-11T16:20:44Z</time>
      </trkpt>
      <trkpt lat="43.84279" lon="4.02386">
        <ele>130</ele>
        <time>2018-05-11T16:20:45Z</time>
      </trkpt>
      <trkpt lat="43.84276" lon="4.02384">
        <ele>129</ele>
        <time>2018-05-11T16:20:46Z</time>
      </trkpt>
      <trkpt lat="43.84269" lon="4.02382">
        <ele>129</ele>
        <time>2018-05-11T16:20:49Z</time>
      </trkpt>
      <trkpt lat="43.8426" lon="4.02384">
        <ele>129</ele>
        <time>2018-05-11T16:20:59Z</time>
      </trkpt>
      <trkpt lat="43.84259" lon="4.02383">
        <ele>129</ele>
        <time>2018-05-11T16:21:02Z</time>
      </trkpt>
      <trkpt lat="43.84258" lon="4.02381">
        <ele>128</ele>
        <time>2018-05-11T16:21:06Z</time>
      </trkpt>
      <trkpt lat="43.8426" lon="4.02381">
        <ele>129</ele>
        <time>2018-05-11T16:21:16Z</time>
      </trkpt>
      <trkpt lat="43.84259" lon="4.0238">
        <ele>128</ele>
        <time>2018-05-11T16:21:20Z</time>
      </trkpt>
      <trkpt lat="43.8426" lon="4.0238">
        <ele>128</ele>
        <time>2018-05-11T16:21:27Z</time>
      </trkpt>
      <trkpt lat="43.84262" lon="4.0238">
        <ele>129</ele>
        <time>2018-05-11T16:21:35Z</time>
      </trkpt>
      <trkpt lat="43.84264" lon="4.0238">
        <ele>129</ele>
        <time>2018-05-11T16:21:38Z</time>
      </trkpt>
      <trkpt lat="43.84259" lon="4.02377">
        <ele>128</ele>
        <time>2018-05-11T16:21:55Z</time>
      </trkpt>
      <trkpt lat="43.84258" lon="4.02376">
        <ele>128</ele>
        <time>2018-05-11T16:21:56Z</time>
      </trkpt>
      <trkpt lat="43.84255" lon="4.02371">
        <ele>128</ele>
        <time>2018-05-11T16:22:01Z</time>
      </trkpt>
      <trkpt lat="43.84254" lon="4.0237">
        <ele>128</ele>
        <time>2018-05-11T16:22:02Z</time>
      </trkpt>
      <trkpt lat="43.84252" lon="4.02368">
        <ele>127</ele>
        <time>2018-05-11T16:22:03Z</time>
      </trkpt>
      <trkpt lat="43.84248" lon="4.02359">
        <ele>122</ele>
        <time>2018-05-11T16:22:25Z</time>
      </trkpt>
      <trkpt lat="43.84247" lon="4.02357">
        <ele>122</ele>
        <time>2018-05-11T16:22:26Z</time>
      </trkpt>
      <trkpt lat="43.84242" lon="4.02341">
        <ele>122</ele>
        <time>2018-05-11T16:22:33Z</time>
      </trkpt>
      <trkpt lat="43.84236" lon="4.0232">
        <ele>119</ele>
        <time>2018-05-11T16:22:41Z</time>
      </trkpt>
      <trkpt lat="43.84232" lon="4.02309">
        <ele>118</ele>
        <time>2018-05-11T16:22:45Z</time>
      </trkpt>
      <trkpt lat="43.84228" lon="4.023">
        <ele>117</ele>
        <time>2018-05-11T16:22:49Z</time>
      </trkpt>
      <trkpt lat="43.84227" lon="4.02298">
        <ele>117</ele>
        <time>2018-05-11T16:22:50Z</time>
      </trkpt>
      <trkpt lat="43.84219" lon="4.02282">
        <ele>116</ele>
        <time>2018-05-11T16:22:59Z</time>
      </trkpt>
      <trkpt lat="43.84218" lon="4.02282">
        <ele>116</ele>
        <time>2018-05-11T16:23:00Z</time>
      </trkpt>
      <trkpt lat="43.84217" lon="4.02284">
        <ele>116</ele>
        <time>2018-05-11T16:23:01Z</time>
      </trkpt>
      <trkpt lat="43.84216" lon="4.02285">
        <ele>116</ele>
        <time>2018-05-11T16:23:02Z</time>
      </trkpt>
      <trkpt lat="43.84214" lon="4.02287">
        <ele>116</ele>
        <time>2018-05-11T16:23:03Z</time>
      </trkpt>
      <trkpt lat="43.84209" lon="4.023">
        <ele>117</ele>
        <time>2018-05-11T16:23:08Z</time>
      </trkpt>
      <trkpt lat="43.84204" lon="4.0231">
        <ele>117</ele>
        <time>2018-05-11T16:23:12Z</time>
      </trkpt>
      <trkpt lat="43.842" lon="4.0232">
        <ele>118</ele>
        <time>2018-05-11T16:23:16Z</time>
      </trkpt>
      <trkpt lat="43.84199" lon="4.0232">
        <ele>118</ele>
        <time>2018-05-11T16:23:17Z</time>
      </trkpt>
      <trkpt lat="43.84197" lon="4.02319">
        <ele>118</ele>
        <time>2018-05-11T16:23:18Z</time>
      </trkpt>
      <trkpt lat="43.84196" lon="4.02317">
        <ele>117</ele>
        <time>2018-05-11T16:23:19Z</time>
      </trkpt>
      <trkpt lat="43.84194" lon="4.02315">
        <ele>117</ele>
        <time>2018-05-11T16:23:20Z</time>
      </trkpt>
      <trkpt lat="43.84193" lon="4.02313">
        <ele>117</ele>
        <time>2018-05-11T16:23:21Z</time>
      </trkpt>
      <trkpt lat="43.84192" lon="4.02311">
        <ele>117</ele>
        <time>2018-05-11T16:23:22Z</time>
      </trkpt>
      <trkpt lat="43.84192" lon="4.02309">
        <ele>117</ele>
        <time>2018-05-11T16:23:23Z</time>
      </trkpt>
      <trkpt lat="43.84191" lon="4.02308">
        <ele>117</ele>
        <time>2018-05-11T16:23:24Z</time>
      </trkpt>
      <trkpt lat="43.8419" lon="4.02307">
        <ele>117</ele>
        <time>2018-05-11T16:23:25Z</time>
      </trkpt>
      <trkpt lat="43.84189" lon="4.02306">
        <ele>117</ele>
        <time>2018-05-11T16:23:26Z</time>
      </trkpt>
      <trkpt lat="43.84187" lon="4.02306">
        <ele>117</ele>
        <time>2018-05-11T16:23:28Z</time>
      </trkpt>
      <trkpt lat="43.84185" lon="4.02306">
        <ele>117</ele>
        <time>2018-05-11T16:23:29Z</time>
      </trkpt>
      <trkpt lat="43.84185" lon="4.02306">
        <ele>117</ele>
        <time>2018-05-11T16:23:30Z</time>
      </trkpt>
      <trkpt lat="43.84182" lon="4.02305">
        <ele>117</ele>
        <time>2018-05-11T16:23:35Z</time>
      </trkpt>
      <trkpt lat="43.84184" lon="4.02305">
        <ele>117</ele>
        <time>2018-05-11T16:23:38Z</time>
      </trkpt>
      <trkpt lat="43.84185" lon="4.02306">
        <ele>117</ele>
        <time>2018-05-11T16:23:39Z</time>
      </trkpt>
      <trkpt lat="43.84187" lon="4.02308">
        <ele>117</ele>
        <time>2018-05-11T16:23:40Z</time>
      </trkpt>
      <trkpt lat="43.84188" lon="4.02309">
        <ele>117</ele>
        <time>2018-05-11T16:23:41Z</time>
      </trkpt>
      <trkpt lat="43.8419" lon="4.0231">
        <ele>117</ele>
        <time>2018-05-11T16:23:42Z</time>
      </trkpt>
      <trkpt lat="43.84192" lon="4.02312">
        <ele>117</ele>
        <time>2018-05-11T16:23:43Z</time>
      </trkpt>
      <trkpt lat="43.84192" lon="4.02313">
        <ele>117</ele>
        <time>2018-05-11T16:23:44Z</time>
      </trkpt>
      <trkpt lat="43.842" lon="4.02318">
        <ele>117</ele>
        <time>2018-05-11T16:23:49Z</time>
      </trkpt>
      <trkpt lat="43.84203" lon="4.02315">
        <ele>117</ele>
        <time>2018-05-11T16:23:51Z</time>
      </trkpt>
      <trkpt lat="43.84204" lon="4.02312">
        <ele>117</ele>
        <time>2018-05-11T16:23:52Z</time>
      </trkpt>
      <trkpt lat="43.84206" lon="4.02293">
        <ele>117</ele>
        <time>2018-05-11T16:23:57Z</time>
      </trkpt>
      <trkpt lat="43.8421" lon="4.02279">
        <ele>116</ele>
        <time>2018-05-11T16:24:01Z</time>
      </trkpt>
      <trkpt lat="43.84226" lon="4.02262">
        <ele>115</ele>
        <time>2018-05-11T16:24:08Z</time>
      </trkpt>
      <trkpt lat="43.84244" lon="4.02249">
        <ele>112</ele>
        <time>2018-05-11T16:24:15Z</time>
      </trkpt>
      <trkpt lat="43.84263" lon="4.02237">
        <ele>112</ele>
        <time>2018-05-11T16:24:22Z</time>
      </trkpt>
      <trkpt lat="43.84281" lon="4.02226">
        <ele>112</ele>
        <time>2018-05-11T16:24:29Z</time>
      </trkpt>
      <trkpt lat="43.84299" lon="4.02216">
        <ele>112</ele>
        <time>2018-05-11T16:24:36Z</time>
      </trkpt>
      <trkpt lat="43.84317" lon="4.02204">
        <ele>112</ele>
        <time>2018-05-11T16:24:43Z</time>
      </trkpt>
      <trkpt lat="43.84334" lon="4.02189">
        <ele>111</ele>
        <time>2018-05-11T16:24:50Z</time>
      </trkpt>
      <trkpt lat="43.84349" lon="4.02172">
        <ele>111</ele>
        <time>2018-05-11T16:24:57Z</time>
      </trkpt>
      <trkpt lat="43.84363" lon="4.02151">
        <ele>107</ele>
        <time>2018-05-11T16:25:04Z</time>
      </trkpt>
      <trkpt lat="43.84375" lon="4.02131">
        <ele>106</ele>
        <time>2018-05-11T16:25:11Z</time>
      </trkpt>
      <trkpt lat="43.84394" lon="4.0212">
        <ele>106</ele>
        <time>2018-05-11T16:25:18Z</time>
      </trkpt>
      <trkpt lat="43.84415" lon="4.02116">
        <ele>106</ele>
        <time>2018-05-11T16:25:25Z</time>
      </trkpt>
      <trkpt lat="43.84435" lon="4.02115">
        <ele>103</ele>
        <time>2018-05-11T16:25:32Z</time>
      </trkpt>
      <trkpt lat="43.84456" lon="4.02114">
        <ele>103</ele>
        <time>2018-05-11T16:25:39Z</time>
      </trkpt>
      <trkpt lat="43.84477" lon="4.02114">
        <ele>102</ele>
        <time>2018-05-11T16:25:46Z</time>
      </trkpt>
      <trkpt lat="43.84497" lon="4.02111">
        <ele>102</ele>
        <time>2018-05-11T16:25:53Z</time>
      </trkpt>
      <trkpt lat="43.84516" lon="4.02106">
        <ele>100</ele>
        <time>2018-05-11T16:26:00Z</time>
      </trkpt>
      <trkpt lat="43.84534" lon="4.02098">
        <ele>100</ele>
        <time>2018-05-11T16:26:07Z</time>
      </trkpt>
      <trkpt lat="43.84553" lon="4.02091">
        <ele>99</ele>
        <time>2018-05-11T16:26:14Z</time>
      </trkpt>
      <trkpt lat="43.84572" lon="4.02083">
        <ele>99</ele>
        <time>2018-05-11T16:26:21Z</time>
      </trkpt>
      <trkpt lat="43.84591" lon="4.02075">
        <ele>97</ele>
        <time>2018-05-11T16:26:28Z</time>
      </trkpt>
      <trkpt lat="43.8461" lon="4.02067">
        <ele>97</ele>
        <time>2018-05-11T16:26:35Z</time>
      </trkpt>
      <trkpt lat="43.84628" lon="4.02059">
        <ele>97</ele>
        <time>2018-05-11T16:26:42Z</time>
      </trkpt>
      <trkpt lat="43.84647" lon="4.0205">
        <ele>97</ele>
        <time>2018-05-11T16:26:49Z</time>
      </trkpt>
      <trkpt lat="43.84664" lon="4.0204">
        <ele>96</ele>
        <time>2018-05-11T16:26:56Z</time>
      </trkpt>
      <trkpt lat="43.84685" lon="4.02027">
        <ele>97</ele>
        <time>2018-05-11T16:27:04Z</time>
      </trkpt>
      <trkpt lat="43.84705" lon="4.02014">
        <ele>97</ele>
        <time>2018-05-11T16:27:12Z</time>
      </trkpt>
      <trkpt lat="43.84724" lon="4.02002">
        <ele>97</ele>
        <time>2018-05-11T16:27:19Z</time>
      </trkpt>
      <trkpt lat="43.84744" lon="4.01992">
        <ele>96</ele>
        <time>2018-05-11T16:27:26Z</time>
      </trkpt>
      <trkpt lat="43.84762" lon="4.0198">
        <ele>95</ele>
        <time>2018-05-11T16:27:33Z</time>
      </trkpt>
      <trkpt lat="43.84776" lon="4.01967">
        <ele>95</ele>
        <time>2018-05-11T16:27:40Z</time>
      </trkpt>
      <trkpt lat="43.84793" lon="4.01956">
        <ele>95</ele>
        <time>2018-05-11T16:27:47Z</time>
      </trkpt>
      <trkpt lat="43.8481" lon="4.01944">
        <ele>95</ele>
        <time>2018-05-11T16:27:54Z</time>
      </trkpt>
      <trkpt lat="43.84829" lon="4.01934">
        <ele>94</ele>
        <time>2018-05-11T16:28:02Z</time>
      </trkpt>
      <trkpt lat="43.84846" lon="4.01925">
        <ele>94</ele>
        <time>2018-05-11T16:28:09Z</time>
      </trkpt>
      <trkpt lat="43.84865" lon="4.01917">
        <ele>95</ele>
        <time>2018-05-11T16:28:16Z</time>
      </trkpt>
      <trkpt lat="43.84884" lon="4.01909">
        <ele>92</ele>
        <time>2018-05-11T16:28:23Z</time>
      </trkpt>
      <trkpt lat="43.84903" lon="4.01902">
        <ele>93</ele>
        <time>2018-05-11T16:28:30Z</time>
      </trkpt>
      <trkpt lat="43.84923" lon="4.01895">
        <ele>93</ele>
        <time>2018-05-11T16:28:37Z</time>
      </trkpt>
      <trkpt lat="43.84943" lon="4.01886">
        <ele>92</ele>
        <time>2018-05-11T16:28:45Z</time>
      </trkpt>
      <trkpt lat="43.84965" lon="4.01877">
        <ele>92</ele>
        <time>2018-05-11T16:28:53Z</time>
      </trkpt>
      <trkpt lat="43.84983" lon="4.01869">
        <ele>92</ele>
        <time>2018-05-11T16:29:00Z</time>
      </trkpt>
      <trkpt lat="43.85002" lon="4.01862">
        <ele>93</ele>
        <time>2018-05-11T16:29:07Z</time>
      </trkpt>
      <trkpt lat="43.85023" lon="4.01853">
        <ele>93</ele>
        <time>2018-05-11T16:29:15Z</time>
      </trkpt>
      <trkpt lat="43.85044" lon="4.01844">
        <ele>93</ele>
        <time>2018-05-11T16:29:23Z</time>
      </trkpt>
      <trkpt lat="43.85064" lon="4.01834">
        <ele>92</ele>
        <time>2018-05-11T16:29:31Z</time>
      </trkpt>
      <trkpt lat="43.85084" lon="4.01827">
        <ele>92</ele>
        <time>2018-05-11T16:29:38Z</time>
      </trkpt>
      <trkpt lat="43.85103" lon="4.0182">
        <ele>92</ele>
        <time>2018-05-11T16:29:45Z</time>
      </trkpt>
      <trkpt lat="43.85123" lon="4.01811">
        <ele>92</ele>
        <time>2018-05-11T16:29:52Z</time>
      </trkpt>
      <trkpt lat="43.85142" lon="4.01802">
        <ele>92</ele>
        <time>2018-05-11T16:29:59Z</time>
      </trkpt>
      <trkpt lat="43.8516" lon="4.01793">
        <ele>92</ele>
        <time>2018-05-11T16:30:06Z</time>
      </trkpt>
      <trkpt lat="43.85177" lon="4.01785">
        <ele>91</ele>
        <time>2018-05-11T16:30:13Z</time>
      </trkpt>
      <trkpt lat="43.852" lon="4.01773">
        <ele>91</ele>
        <time>2018-05-11T16:30:22Z</time>
      </trkpt>
      <trkpt lat="43.8522" lon="4.01762">
        <ele>90</ele>
        <time>2018-05-11T16:30:30Z</time>
      </trkpt>
      <trkpt lat="43.8524" lon="4.01752">
        <ele>90</ele>
        <time>2018-05-11T16:30:38Z</time>
      </trkpt>
      <trkpt lat="43.85261" lon="4.01745">
        <ele>89</ele>
        <time>2018-05-11T16:30:46Z</time>
      </trkpt>
      <trkpt lat="43.85283" lon="4.01741">
        <ele>89</ele>
        <time>2018-05-11T16:30:54Z</time>
      </trkpt>
      <trkpt lat="43.85302" lon="4.01739">
        <ele>89</ele>
        <time>2018-05-11T16:31:01Z</time>
      </trkpt>
      <trkpt lat="43.85321" lon="4.01738">
        <ele>90</ele>
        <time>2018-05-11T16:31:08Z</time>
      </trkpt>
      <trkpt lat="43.85342" lon="4.01735">
        <ele>90</ele>
        <time>2018-05-11T16:31:16Z</time>
      </trkpt>
      <trkpt lat="43.85363" lon="4.01733">
        <ele>90</ele>
        <time>2018-05-11T16:31:24Z</time>
      </trkpt>
      <trkpt lat="43.85383" lon="4.01731">
        <ele>89</ele>
        <time>2018-05-11T16:31:32Z</time>
      </trkpt>
      <trkpt lat="43.85403" lon="4.01728">
        <ele>89</ele>
        <time>2018-05-11T16:31:40Z</time>
      </trkpt>
      <trkpt lat="43.85426" lon="4.01725">
        <ele>89</ele>
        <time>2018-05-11T16:31:48Z</time>
      </trkpt>
      <trkpt lat="43.85448" lon="4.01722">
        <ele>89</ele>
        <time>2018-05-11T16:31:56Z</time>
      </trkpt>
      <trkpt lat="43.8547" lon="4.01718">
        <ele>89</ele>
        <time>2018-05-11T16:32:04Z</time>
      </trkpt>
      <trkpt lat="43.85491" lon="4.01714">
        <ele>89</ele>
        <time>2018-05-11T16:32:12Z</time>
      </trkpt>
      <trkpt lat="43.85515" lon="4.01711">
        <ele>88</ele>
        <time>2018-05-11T16:32:20Z</time>
      </trkpt>
      <trkpt lat="43.85535" lon="4.01707">
        <ele>88</ele>
        <time>2018-05-11T16:32:27Z</time>
      </trkpt>
      <trkpt lat="43.85556" lon="4.01704">
        <ele>88</ele>
        <time>2018-05-11T16:32:35Z</time>
      </trkpt>
      <trkpt lat="43.85575" lon="4.01699">
        <ele>88</ele>
        <time>2018-05-11T16:32:43Z</time>
      </trkpt>
      <trkpt lat="43.85598" lon="4.01696">
        <ele>87</ele>
        <time>2018-05-11T16:32:51Z</time>
      </trkpt>
      <trkpt lat="43.85619" lon="4.01694">
        <ele>86</ele>
        <time>2018-05-11T16:32:59Z</time>
      </trkpt>
      <trkpt lat="43.85641" lon="4.01692">
        <ele>86</ele>
        <time>2018-05-11T16:33:07Z</time>
      </trkpt>
      <trkpt lat="43.85662" lon="4.01693">
        <ele>86</ele>
        <time>2018-05-11T16:33:15Z</time>
      </trkpt>
      <trkpt lat="43.85683" lon="4.01692">
        <ele>86</ele>
        <time>2018-05-11T16:33:23Z</time>
      </trkpt>
      <trkpt lat="43.85705" lon="4.0169">
        <ele>86</ele>
        <time>2018-05-11T16:33:31Z</time>
      </trkpt>
      <trkpt lat="43.85727" lon="4.01692">
        <ele>86</ele>
        <time>2018-05-11T16:33:39Z</time>
      </trkpt>
      <trkpt lat="43.85748" lon="4.01693">
        <ele>86</ele>
        <time>2018-05-11T16:33:47Z</time>
      </trkpt>
      <trkpt lat="43.85771" lon="4.01696">
        <ele>86</ele>
        <time>2018-05-11T16:33:56Z</time>
      </trkpt>
      <trkpt lat="43.85793" lon="4.01697">
        <ele>86</ele>
        <time>2018-05-11T16:34:04Z</time>
      </trkpt>
      <trkpt lat="43.85814" lon="4.01699">
        <ele>86</ele>
        <time>2018-05-11T16:34:12Z</time>
      </trkpt>
      <trkpt lat="43.85837" lon="4.017">
        <ele>87</ele>
        <time>2018-05-11T16:34:20Z</time>
      </trkpt>
      <trkpt lat="43.8586" lon="4.01702">
        <ele>86</ele>
        <time>2018-05-11T16:34:28Z</time>
      </trkpt>
      <trkpt lat="43.85881" lon="4.01704">
        <ele>86</ele>
        <time>2018-05-11T16:34:36Z</time>
      </trkpt>
      <trkpt lat="43.85902" lon="4.01704">
        <ele>86</ele>
        <time>2018-05-11T16:34:45Z</time>
      </trkpt>
      <trkpt lat="43.85924" lon="4.01702">
        <ele>86</ele>
        <time>2018-05-11T16:34:53Z</time>
      </trkpt>
      <trkpt lat="43.85946" lon="4.017">
        <ele>86</ele>
        <time>2018-05-11T16:35:01Z</time>
      </trkpt>
      <trkpt lat="43.85968" lon="4.017">
        <ele>86</ele>
        <time>2018-05-11T16:35:09Z</time>
      </trkpt>
      <trkpt lat="43.85987" lon="4.01705">
        <ele>86</ele>
        <time>2018-05-11T16:35:16Z</time>
      </trkpt>
      <trkpt lat="43.86008" lon="4.01705">
        <ele>85</ele>
        <time>2018-05-11T16:35:24Z</time>
      </trkpt>
      <trkpt lat="43.86018" lon="4.01706">
        <ele>85</ele>
        <time>2018-05-11T16:35:28Z</time>
      </trkpt>
      <trkpt lat="43.86021" lon="4.01708">
        <ele>85</ele>
        <time>2018-05-11T16:35:29Z</time>
      </trkpt>
      <trkpt lat="43.86024" lon="4.0171">
        <ele>85</ele>
        <time>2018-05-11T16:35:30Z</time>
      </trkpt>
      <trkpt lat="43.86026" lon="4.01712">
        <ele>85</ele>
        <time>2018-05-11T16:35:31Z</time>
      </trkpt>
      <trkpt lat="43.86029" lon="4.01715">
        <ele>85</ele>
        <time>2018-05-11T16:35:32Z</time>
      </trkpt>
      <trkpt lat="43.8603" lon="4.01718">
        <ele>85</ele>
        <time>2018-05-11T16:35:33Z</time>
      </trkpt>
      <trkpt lat="43.86032" lon="4.01721">
        <ele>85</ele>
        <time>2018-05-11T16:35:34Z</time>
      </trkpt>
      <trkpt lat="43.86037" lon="4.01747">
        <ele>85</ele>
        <time>2018-05-11T16:35:41Z</time>
      </trkpt>
      <trkpt lat="43.86042" lon="4.01776">
        <ele>83</ele>
        <time>2018-05-11T16:35:49Z</time>
      </trkpt>
      <trkpt lat="43.86049" lon="4.01806">
        <ele>83</ele>
        <time>2018-05-11T16:35:57Z</time>
      </trkpt>
      <trkpt lat="43.86055" lon="4.01835">
        <ele>82</ele>
        <time>2018-05-11T16:36:05Z</time>
      </trkpt>
      <trkpt lat="43.86059" lon="4.01861">
        <ele>82</ele>
        <time>2018-05-11T16:36:13Z</time>
      </trkpt>
      <trkpt lat="43.86063" lon="4.01889">
        <ele>83</ele>
        <time>2018-05-11T16:36:21Z</time>
      </trkpt>
      <trkpt lat="43.86069" lon="4.01917">
        <ele>83</ele>
        <time>2018-05-11T16:36:29Z</time>
      </trkpt>
      <trkpt lat="43.86074" lon="4.01945">
        <ele>83</ele>
        <time>2018-05-11T16:36:37Z</time>
      </trkpt>
      <trkpt lat="43.86081" lon="4.01973">
        <ele>83</ele>
        <time>2018-05-11T16:36:45Z</time>
      </trkpt>
      <trkpt lat="43.86087" lon="4.02002">
        <ele>83</ele>
        <time>2018-05-11T16:36:53Z</time>
      </trkpt>
      <trkpt lat="43.86098" lon="4.02027">
        <ele>83</ele>
        <time>2018-05-11T16:37:01Z</time>
      </trkpt>
      <trkpt lat="43.86114" lon="4.02044">
        <ele>83</ele>
        <time>2018-05-11T16:37:08Z</time>
      </trkpt>
      <trkpt lat="43.86132" lon="4.02055">
        <ele>82</ele>
        <time>2018-05-11T16:37:15Z</time>
      </trkpt>
      <trkpt lat="43.86153" lon="4.02062">
        <ele>82</ele>
        <time>2018-05-11T16:37:22Z</time>
      </trkpt>
      <trkpt lat="43.86172" lon="4.02069">
        <ele>82</ele>
        <time>2018-05-11T16:37:29Z</time>
      </trkpt>
      <trkpt lat="43.86191" lon="4.02075">
        <ele>81</ele>
        <time>2018-05-11T16:37:36Z</time>
      </trkpt>
      <trkpt lat="43.86209" lon="4.02081">
        <ele>81</ele>
        <time>2018-05-11T16:37:43Z</time>
      </trkpt>
      <trkpt lat="43.86229" lon="4.02087">
        <ele>81</ele>
        <time>2018-05-11T16:37:51Z</time>
      </trkpt>
      <trkpt lat="43.86248" lon="4.02095">
        <ele>81</ele>
        <time>2018-05-11T16:37:59Z</time>
      </trkpt>
      <trkpt lat="43.86265" lon="4.02105">
        <ele>81</ele>
        <time>2018-05-11T16:38:07Z</time>
      </trkpt>
      <trkpt lat="43.86284" lon="4.0212">
        <ele>81</ele>
        <time>2018-05-11T16:38:16Z</time>
      </trkpt>
      <trkpt lat="43.86298" lon="4.02138">
        <ele>81</ele>
        <time>2018-05-11T16:38:24Z</time>
      </trkpt>
      <trkpt lat="43.86315" lon="4.02159">
        <ele>80</ele>
        <time>2018-05-11T16:38:33Z</time>
      </trkpt>
      <trkpt lat="43.86333" lon="4.02179">
        <ele>81</ele>
        <time>2018-05-11T16:38:42Z</time>
      </trkpt>
      <trkpt lat="43.86351" lon="4.02196">
        <ele>81</ele>
        <time>2018-05-11T16:38:50Z</time>
      </trkpt>
      <trkpt lat="43.86367" lon="4.02216">
        <ele>81</ele>
        <time>2018-05-11T16:38:58Z</time>
      </trkpt>
      <trkpt lat="43.86383" lon="4.02235">
        <ele>81</ele>
        <time>2018-05-11T16:39:06Z</time>
      </trkpt>
      <trkpt lat="43.86398" lon="4.02254">
        <ele>82</ele>
        <time>2018-05-11T16:39:14Z</time>
      </trkpt>
      <trkpt lat="43.86414" lon="4.02275">
        <ele>82</ele>
        <time>2018-05-11T16:39:22Z</time>
      </trkpt>
      <trkpt lat="43.86427" lon="4.02296">
        <ele>81</ele>
        <time>2018-05-11T16:39:30Z</time>
      </trkpt>
      <trkpt lat="43.86441" lon="4.02316">
        <ele>81</ele>
        <time>2018-05-11T16:39:38Z</time>
      </trkpt>
      <trkpt lat="43.86455" lon="4.02337">
        <ele>81</ele>
        <time>2018-05-11T16:39:46Z</time>
      </trkpt>
      <trkpt lat="43.8647" lon="4.02357">
        <ele>81</ele>
        <time>2018-05-11T16:39:54Z</time>
      </trkpt>
      <trkpt lat="43.86484" lon="4.02377">
        <ele>81</ele>
        <time>2018-05-11T16:40:02Z</time>
      </trkpt>
      <trkpt lat="43.86499" lon="4.02399">
        <ele>81</ele>
        <time>2018-05-11T16:40:10Z</time>
      </trkpt>
      <trkpt lat="43.86508" lon="4.02424">
        <ele>81</ele>
        <time>2018-05-11T16:40:18Z</time>
      </trkpt>
      <trkpt lat="43.86516" lon="4.0245">
        <ele>80</ele>
        <time>2018-05-11T16:40:26Z</time>
      </trkpt>
      <trkpt lat="43.86525" lon="4.02477">
        <ele>80</ele>
        <time>2018-05-11T16:40:34Z</time>
      </trkpt>
      <trkpt lat="43.86531" lon="4.02503">
        <ele>81</ele>
        <time>2018-05-11T16:40:42Z</time>
      </trkpt>
      <trkpt lat="43.86538" lon="4.0253">
        <ele>81</ele>
        <time>2018-05-11T16:40:50Z</time>
      </trkpt>
      <trkpt lat="43.86546" lon="4.02554">
        <ele>82</ele>
        <time>2018-05-11T16:40:58Z</time>
      </trkpt>
      <trkpt lat="43.86556" lon="4.02577">
        <ele>82</ele>
        <time>2018-05-11T16:41:06Z</time>
      </trkpt>
      <trkpt lat="43.8657" lon="4.02597">
        <ele>83</ele>
        <time>2018-05-11T16:41:14Z</time>
      </trkpt>
      <trkpt lat="43.86587" lon="4.02612">
        <ele>82</ele>
        <time>2018-05-11T16:41:22Z</time>
      </trkpt>
      <trkpt lat="43.86604" lon="4.02627">
        <ele>82</ele>
        <time>2018-05-11T16:41:30Z</time>
      </trkpt>
      <trkpt lat="43.86622" lon="4.02639">
        <ele>82</ele>
        <time>2018-05-11T16:41:38Z</time>
      </trkpt>
      <trkpt lat="43.8664" lon="4.0265">
        <ele>82</ele>
        <time>2018-05-11T16:41:45Z</time>
      </trkpt>
      <trkpt lat="43.86657" lon="4.02661">
        <ele>82</ele>
        <time>2018-05-11T16:41:52Z</time>
      </trkpt>
      <trkpt lat="43.86675" lon="4.02672">
        <ele>82</ele>
        <time>2018-05-11T16:42:00Z</time>
      </trkpt>
      <trkpt lat="43.86692" lon="4.02684">
        <ele>81</ele>
        <time>2018-05-11T16:42:08Z</time>
      </trkpt>
      <trkpt lat="43.8671" lon="4.02698">
        <ele>81</ele>
        <time>2018-05-11T16:42:16Z</time>
      </trkpt>
      <trkpt lat="43.86727" lon="4.02708">
        <ele>81</ele>
        <time>2018-05-11T16:42:23Z</time>
      </trkpt>
      <trkpt lat="43.86747" lon="4.02722">
        <ele>81</ele>
        <time>2018-05-11T16:42:32Z</time>
      </trkpt>
      <trkpt lat="43.86761" lon="4.02737">
        <ele>80</ele>
        <time>2018-05-11T16:42:39Z</time>
      </trkpt>
      <trkpt lat="43.86779" lon="4.02753">
        <ele>82</ele>
        <time>2018-05-11T16:42:47Z</time>
      </trkpt>
      <trkpt lat="43.86796" lon="4.02768">
        <ele>82</ele>
        <time>2018-05-11T16:42:55Z</time>
      </trkpt>
      <trkpt lat="43.86813" lon="4.02787">
        <ele>82</ele>
        <time>2018-05-11T16:43:04Z</time>
      </trkpt>
      <trkpt lat="43.86831" lon="4.02805">
        <ele>83</ele>
        <time>2018-05-11T16:43:13Z</time>
      </trkpt>
      <trkpt lat="43.86848" lon="4.02822">
        <ele>82</ele>
        <time>2018-05-11T16:43:21Z</time>
      </trkpt>
      <trkpt lat="43.86867" lon="4.02838">
        <ele>85</ele>
        <time>2018-05-11T16:43:29Z</time>
      </trkpt>
      <trkpt lat="43.86884" lon="4.02852">
        <ele>85</ele>
        <time>2018-05-11T16:43:36Z</time>
      </trkpt>
      <trkpt lat="43.86902" lon="4.02868">
        <ele>85</ele>
        <time>2018-05-11T16:43:44Z</time>
      </trkpt>
      <trkpt lat="43.86922" lon="4.02884">
        <ele>84</ele>
        <time>2018-05-11T16:43:53Z</time>
      </trkpt>
      <trkpt lat="43.86943" lon="4.02897">
        <ele>84</ele>
        <time>2018-05-11T16:44:01Z</time>
      </trkpt>
      <trkpt lat="43.86962" lon="4.02907">
        <ele>83</ele>
        <time>2018-05-11T16:44:09Z</time>
      </trkpt>
      <trkpt lat="43.86984" lon="4.02917">
        <ele>88</ele>
        <time>2018-05-11T16:44:16Z</time>
      </trkpt>
      <trkpt lat="43.87002" lon="4.02927">
        <ele>84</ele>
        <time>2018-05-11T16:44:23Z</time>
      </trkpt>
      <trkpt lat="43.87022" lon="4.02937">
        <ele>84</ele>
        <time>2018-05-11T16:44:30Z</time>
      </trkpt>
      <trkpt lat="43.8704" lon="4.02948">
        <ele>84</ele>
        <time>2018-05-11T16:44:37Z</time>
      </trkpt>
      <trkpt lat="43.87058" lon="4.02959">
        <ele>84</ele>
        <time>2018-05-11T16:44:44Z</time>
      </trkpt>
      <trkpt lat="43.87077" lon="4.02972">
        <ele>84</ele>
        <time>2018-05-11T16:44:52Z</time>
      </trkpt>
      <trkpt lat="43.87095" lon="4.02987">
        <ele>80</ele>
        <time>2018-05-11T16:45:00Z</time>
      </trkpt>
      <trkpt lat="43.87113" lon="4.03002">
        <ele>82</ele>
        <time>2018-05-11T16:45:08Z</time>
      </trkpt>
      <trkpt lat="43.87129" lon="4.03017">
        <ele>81</ele>
        <time>2018-05-11T16:45:16Z</time>
      </trkpt>
      <trkpt lat="43.87146" lon="4.03032">
        <ele>81</ele>
        <time>2018-05-11T16:45:25Z</time>
      </trkpt>
      <trkpt lat="43.87165" lon="4.03049">
        <ele>82</ele>
        <time>2018-05-11T16:45:34Z</time>
      </trkpt>
      <trkpt lat="43.87182" lon="4.03067">
        <ele>78</ele>
        <time>2018-05-11T16:45:43Z</time>
      </trkpt>
      <trkpt lat="43.87198" lon="4.03088">
        <ele>81</ele>
        <time>2018-05-11T16:45:52Z</time>
      </trkpt>
      <trkpt lat="43.87215" lon="4.03109">
        <ele>81</ele>
        <time>2018-05-11T16:46:01Z</time>
      </trkpt>
      <trkpt lat="43.87234" lon="4.03126">
        <ele>81</ele>
        <time>2018-05-11T16:46:10Z</time>
      </trkpt>
      <trkpt lat="43.87252" lon="4.03147">
        <ele>77</ele>
        <time>2018-05-11T16:46:19Z</time>
      </trkpt>
      <trkpt lat="43.87269" lon="4.03165">
        <ele>77</ele>
        <time>2018-05-11T16:46:28Z</time>
      </trkpt>
      <trkpt lat="43.87287" lon="4.03184">
        <ele>82</ele>
        <time>2018-05-11T16:46:37Z</time>
      </trkpt>
      <trkpt lat="43.87304" lon="4.03209">
        <ele>82</ele>
        <time>2018-05-11T16:46:46Z</time>
      </trkpt>
      <trkpt lat="43.87316" lon="4.03232">
        <ele>83</ele>
        <time>2018-05-11T16:46:54Z</time>
      </trkpt>
      <trkpt lat="43.87329" lon="4.03255">
        <ele>85</ele>
        <time>2018-05-11T16:47:03Z</time>
      </trkpt>
      <trkpt lat="43.87342" lon="4.03277">
        <ele>84</ele>
        <time>2018-05-11T16:47:12Z</time>
      </trkpt>
      <trkpt lat="43.87354" lon="4.03301">
        <ele>84</ele>
        <time>2018-05-11T16:47:21Z</time>
      </trkpt>
      <trkpt lat="43.8737" lon="4.03325">
        <ele>84</ele>
        <time>2018-05-11T16:47:30Z</time>
      </trkpt>
      <trkpt lat="43.87385" lon="4.03349">
        <ele>86</ele>
        <time>2018-05-11T16:47:38Z</time>
      </trkpt>
      <trkpt lat="43.87399" lon="4.03373">
        <ele>86</ele>
        <time>2018-05-11T16:47:47Z</time>
      </trkpt>
      <trkpt lat="43.87403" lon="4.03384">
        <ele>86</ele>
        <time>2018-05-11T16:47:51Z</time>
      </trkpt>
      <trkpt lat="43.87405" lon="4.03387">
        <ele>86</ele>
        <time>2018-05-11T16:47:52Z</time>
      </trkpt>
      <trkpt lat="43.87405" lon="4.0339">
        <ele>86</ele>
        <time>2018-05-11T16:47:53Z</time>
      </trkpt>
      <trkpt lat="43.87414" lon="4.03418">
        <ele>85</ele>
        <time>2018-05-11T16:48:02Z</time>
      </trkpt>
      <trkpt lat="43.87421" lon="4.03446">
        <ele>85</ele>
        <time>2018-05-11T16:48:10Z</time>
      </trkpt>
      <trkpt lat="43.87428" lon="4.03474">
        <ele>86</ele>
        <time>2018-05-11T16:48:18Z</time>
      </trkpt>
      <trkpt lat="43.87437" lon="4.03501">
        <ele>85</ele>
        <time>2018-05-11T16:48:26Z</time>
      </trkpt>
      <trkpt lat="43.87444" lon="4.03528">
        <ele>85</ele>
        <time>2018-05-11T16:48:34Z</time>
      </trkpt>
      <trkpt lat="43.8745" lon="4.03556">
        <ele>85</ele>
        <time>2018-05-11T16:48:42Z</time>
      </trkpt>
      <trkpt lat="43.87457" lon="4.03584">
        <ele>84</ele>
        <time>2018-05-11T16:48:50Z</time>
      </trkpt>
      <trkpt lat="43.87462" lon="4.03614">
        <ele>83</ele>
        <time>2018-05-11T16:48:59Z</time>
      </trkpt>
      <trkpt lat="43.87465" lon="4.03633">
        <ele>83</ele>
        <time>2018-05-11T16:49:05Z</time>
      </trkpt>
      <trkpt lat="43.87467" lon="4.03645">
        <ele>83</ele>
        <time>2018-05-11T16:49:11Z</time>
      </trkpt>
      <trkpt lat="43.87468" lon="4.03647">
        <ele>83</ele>
        <time>2018-05-11T16:49:12Z</time>
      </trkpt>
      <trkpt lat="43.87468" lon="4.03649">
        <ele>83</ele>
        <time>2018-05-11T16:49:13Z</time>
      </trkpt>
      <trkpt lat="43.87469" lon="4.03651">
        <ele>83</ele>
        <time>2018-05-11T16:49:14Z</time>
      </trkpt>
      <trkpt lat="43.8747" lon="4.03652">
        <ele>83</ele>
        <time>2018-05-11T16:49:15Z</time>
      </trkpt>
      <trkpt lat="43.8747" lon="4.03654">
        <ele>83</ele>
        <time>2018-05-11T16:49:16Z</time>
      </trkpt>
      <trkpt lat="43.8747" lon="4.03656">
        <ele>82</ele>
        <time>2018-05-11T16:49:17Z</time>
      </trkpt>
      <trkpt lat="43.8747" lon="4.03658">
        <ele>82</ele>
        <time>2018-05-11T16:49:18Z</time>
      </trkpt>
      <trkpt lat="43.8747" lon="4.03666">
        <ele>82</ele>
        <time>2018-05-11T16:49:22Z</time>
      </trkpt>
      <trkpt lat="43.8747" lon="4.03688">
        <ele>81</ele>
        <time>2018-05-11T16:49:28Z</time>
      </trkpt>
      <trkpt lat="43.87471" lon="4.03718">
        <ele>80</ele>
        <time>2018-05-11T16:49:36Z</time>
      </trkpt>
      <trkpt lat="43.87473" lon="4.03748">
        <ele>80</ele>
        <time>2018-05-11T16:49:44Z</time>
      </trkpt>
      <trkpt lat="43.87472" lon="4.03777">
        <ele>79</ele>
        <time>2018-05-11T16:49:52Z</time>
      </trkpt>
      <trkpt lat="43.87467" lon="4.03794">
        <ele>78</ele>
        <time>2018-05-11T16:49:57Z</time>
      </trkpt>
      <trkpt lat="43.87457" lon="4.03822">
        <ele>78</ele>
        <time>2018-05-11T16:50:05Z</time>
      </trkpt>
      <trkpt lat="43.87448" lon="4.03849">
        <ele>76</ele>
        <time>2018-05-11T16:50:13Z</time>
      </trkpt>
      <trkpt lat="43.87442" lon="4.03876">
        <ele>76</ele>
        <time>2018-05-11T16:50:21Z</time>
      </trkpt>
      <trkpt lat="43.87436" lon="4.03904">
        <ele>76</ele>
        <time>2018-05-11T16:50:29Z</time>
      </trkpt>
      <trkpt lat="43.8743" lon="4.03933">
        <ele>75</ele>
        <time>2018-05-11T16:50:37Z</time>
      </trkpt>
      <trkpt lat="43.87423" lon="4.0396">
        <ele>75</ele>
        <time>2018-05-11T16:50:45Z</time>
      </trkpt>
      <trkpt lat="43.87418" lon="4.03986">
        <ele>74</ele>
        <time>2018-05-11T16:50:53Z</time>
      </trkpt>
      <trkpt lat="43.87412" lon="4.04014">
        <ele>72</ele>
        <time>2018-05-11T16:51:01Z</time>
      </trkpt>
      <trkpt lat="43.874" lon="4.04038">
        <ele>71</ele>
        <time>2018-05-11T16:51:10Z</time>
      </trkpt>
      <trkpt lat="43.8738" lon="4.04053">
        <ele>71</ele>
        <time>2018-05-11T16:51:19Z</time>
      </trkpt>
      <trkpt lat="43.87363" lon="4.04069">
        <ele>70</ele>
        <time>2018-05-11T16:51:27Z</time>
      </trkpt>
      <trkpt lat="43.87346" lon="4.04095">
        <ele>69</ele>
        <time>2018-05-11T16:51:36Z</time>
      </trkpt>
      <trkpt lat="43.87332" lon="4.04124">
        <ele>66</ele>
        <time>2018-05-11T16:51:44Z</time>
      </trkpt>
      <trkpt lat="43.87327" lon="4.04139">
        <ele>66</ele>
        <time>2018-05-11T16:51:48Z</time>
      </trkpt>
      <trkpt lat="43.87325" lon="4.04142">
        <ele>66</ele>
        <time>2018-05-11T16:51:49Z</time>
      </trkpt>
      <trkpt lat="43.87314" lon="4.04164">
        <ele>66</ele>
        <time>2018-05-11T16:51:56Z</time>
      </trkpt>
      <trkpt lat="43.87294" lon="4.04161">
        <ele>65</ele>
        <time>2018-05-11T16:52:04Z</time>
      </trkpt>
      <trkpt lat="43.87275" lon="4.04146">
        <ele>64</ele>
        <time>2018-05-11T16:52:11Z</time>
      </trkpt>
      <trkpt lat="43.87256" lon="4.04132">
        <ele>64</ele>
        <time>2018-05-11T16:52:18Z</time>
      </trkpt>
      <trkpt lat="43.8724" lon="4.04115">
        <ele>61</ele>
        <time>2018-05-11T16:52:25Z</time>
      </trkpt>
      <trkpt lat="43.87223" lon="4.04098">
        <ele>61</ele>
        <time>2018-05-11T16:52:33Z</time>
      </trkpt>
      <trkpt lat="43.87206" lon="4.0408">
        <ele>63</ele>
        <time>2018-05-11T16:52:41Z</time>
      </trkpt>
      <trkpt lat="43.87188" lon="4.04062">
        <ele>62</ele>
        <time>2018-05-11T16:52:49Z</time>
      </trkpt>
      <trkpt lat="43.87171" lon="4.04049">
        <ele>63</ele>
        <time>2018-05-11T16:52:56Z</time>
      </trkpt>
      <trkpt lat="43.87152" lon="4.04039">
        <ele>61</ele>
        <time>2018-05-11T16:53:04Z</time>
      </trkpt>
      <trkpt lat="43.87131" lon="4.04034">
        <ele>60</ele>
        <time>2018-05-11T16:53:12Z</time>
      </trkpt>
      <trkpt lat="43.8711" lon="4.04026">
        <ele>60</ele>
        <time>2018-05-11T16:53:19Z</time>
      </trkpt>
      <trkpt lat="43.87104" lon="4.0402">
        <ele>61</ele>
        <time>2018-05-11T16:53:22Z</time>
      </trkpt>
      <trkpt lat="43.87103" lon="4.04018">
        <ele>61</ele>
        <time>2018-05-11T16:53:23Z</time>
      </trkpt>
      <trkpt lat="43.87104" lon="4.04017">
        <ele>61</ele>
        <time>2018-05-11T16:53:24Z</time>
      </trkpt>
      <trkpt lat="43.87106" lon="4.04016">
        <ele>61</ele>
        <time>2018-05-11T16:53:25Z</time>
      </trkpt>
      <trkpt lat="43.87107" lon="4.04015">
        <ele>61</ele>
        <time>2018-05-11T16:53:26Z</time>
      </trkpt>
      <trkpt lat="43.87109" lon="4.04015">
        <ele>61</ele>
        <time>2018-05-11T16:53:27Z</time>
      </trkpt>
      <trkpt lat="43.87111" lon="4.04014">
        <ele>61</ele>
        <time>2018-05-11T16:53:28Z</time>
      </trkpt>
      <trkpt lat="43.87113" lon="4.04015">
        <ele>61</ele>
        <time>2018-05-11T16:53:29Z</time>
      </trkpt>
      <trkpt lat="43.87115" lon="4.04015">
        <ele>61</ele>
        <time>2018-05-11T16:53:30Z</time>
      </trkpt>
      <trkpt lat="43.87117" lon="4.04014">
        <ele>61</ele>
        <time>2018-05-11T16:53:31Z</time>
      </trkpt>
      <trkpt lat="43.87119" lon="4.04015">
        <ele>61</ele>
        <time>2018-05-11T16:53:32Z</time>
      </trkpt>
      <trkpt lat="43.87122" lon="4.04015">
        <ele>61</ele>
        <time>2018-05-11T16:53:33Z</time>
      </trkpt>
      <trkpt lat="43.8713" lon="4.04015">
        <ele>61</ele>
        <time>2018-05-11T16:53:37Z</time>
      </trkpt>
    </trkseg>
  </trk>
</gpx>